Observation data for Wall on 03/05/2021      Previous  Date  Next       Current Mesonet Observations  Soil Data  Daily Summary Page  Observations in Plain Language
KWA1 050600Z 25011KT 15/09 A2994 RMK A01 T01480090  RH  068%=      5-min Rain = 0
KWA1 050601Z 26009KT 15/09 A2994 RMK A01 T01470088  RH  068%=      5-min Rain = 0
KWA1 050602Z 26010KT 14/08 A2994 RMK A01 T01430084  RH  068%=      5-min Rain = 0
KWA1 050603Z 26010KT 14/08 A2994 RMK A01 T01390084  RH  070%=      5-min Rain = 0
KWA1 050604Z 26010KT 14/08 A2994 RMK A01 T01370084  RH  070%=      5-min Rain = 0
KWA1 050605Z 26010KT 14/08 A2994 RMK A01 T01360084  RH  071%=      5-min Rain = 0
KWA1 050606Z 26011KT 14/09 A2994 RMK A01 T01350085  RH  071%=      5-min Rain = 0
KWA1 050607Z 26011KT 14/09 A2994 RMK A01 T01350085  RH  072%=      5-min Rain = 0
KWA1 050608Z 26011KT 14/09 A2994 RMK A01 T01350085  RH  072%=      5-min Rain = 0
KWA1 050609Z 26011KT 14/09 A2994 RMK A01 T01350085  RH  072%=      5-min Rain = 0
KWA1 050610Z 26011KT 14/09 A2994 RMK A01 T01350085  RH  072%=      5-min Rain = 0
KWA1 050611Z 26011KT 14/09 A2994 RMK A01 T01360085  RH  072%=      5-min Rain = 0
KWA1 050612Z 26011KT 14/09 A2994 RMK A01 T01360086  RH  072%=      5-min Rain = 0
KWA1 050613Z 26011KT 14/09 A2994 RMK A01 T01360086  RH  071%=      5-min Rain = 0
KWA1 050614Z 25011KT 14/09 A2994 RMK A01 T01360086  RH  072%=      5-min Rain = 0
KWA1 050615Z 25011KT 14/09 A2994 RMK A01 T01360085  RH  071%=      5-min Rain = 0
KWA1 050616Z 25011KT 14/09 A2994 RMK A01 T01360086  RH  072%=      5-min Rain = 0
KWA1 050617Z 24011KT 14/09 A2994 RMK A01 T01370086  RH  072%=      5-min Rain = 0
KWA1 050618Z 24011KT 14/09 A2994 RMK A01 T01380087  RH  071%=      5-min Rain = 0
KWA1 050619Z 25011KT 14/09 A2994 RMK A01 T01380087  RH  071%=      5-min Rain = 0
KWA1 050620Z 25011KT 14/09 A2994 RMK A01 T01380086  RH  071%=      5-min Rain = 0
KWA1 050621Z 25011KT 14/09 A2994 RMK A01 T01370086  RH  071%=      5-min Rain = 0
KWA1 050622Z 25012KT 14/09 A2994 RMK A01 T01390088  RH  071%=      5-min Rain = 0
KWA1 050623Z 25011KT 14/09 A2994 RMK A01 T01410089  RH  071%=      5-min Rain = 0
KWA1 050624Z 25011KT 14/09 A2994 RMK A01 T01420089  RH  070%=      5-min Rain = 0
KWA1 050625Z 25011KT 14/09 A2994 RMK A01 T01420089  RH  070%=      5-min Rain = 0
KWA1 050626Z 25011KT 14/09 A2994 RMK A01 T01430090  RH  070%=      5-min Rain = 0
KWA1 050627Z 25011KT 14/09 A2994 RMK A01 T01430090  RH  070%=      5-min Rain = 0
KWA1 050628Z 25011KT 14/09 A2994 RMK A01 T01430089  RH  070%=      5-min Rain = 0
KWA1 050629Z 25010KT 14/09 A2994 RMK A01 T01420088  RH  070%=      5-min Rain = 0
KWA1 050630Z 25010KT 14/09 A2994 RMK A01 T01420088  RH  070%=      5-min Rain = 0
KWA1 050631Z 26010KT 14/09 A2994 RMK A01 T01410087  RH  070%=      5-min Rain = 0
KWA1 050632Z 26010KT 14/09 A2994 RMK A01 T01400087  RH  070%=      5-min Rain = 0
KWA1 050633Z 26010KT 14/09 A2994 RMK A01 T01390086  RH  070%=      5-min Rain = 0
KWA1 050634Z 26010KT 14/09 A2994 RMK A01 T01370085  RH  071%=      5-min Rain = 0
KWA1 050635Z 25009KT 14/09 A2994 RMK A01 T01360085  RH  071%=      5-min Rain = 0
KWA1 050636Z 26009KT 14/08 A2994 RMK A01 T01350084  RH  071%=      5-min Rain = 0
KWA1 050637Z 26009KT 13/08 A2994 RMK A01 T01330083  RH  071%=      5-min Rain = 0
KWA1 050638Z 27009KT 13/08 A2994 RMK A01 T01320083  RH  072%=      5-min Rain = 0
KWA1 050639Z 27008KT 13/08 A2994 RMK A01 T01310082  RH  072%=      5-min Rain = 0
KWA1 050640Z 27008KT 13/08 A2994 RMK A01 T01300082  RH  072%=      5-min Rain = 0
KWA1 050641Z 27007KT 13/08 A2994 RMK A01 T01290083  RH  073%=      5-min Rain = 0
KWA1 050642Z 28006KT 13/08 A2994 RMK A01 T01290082  RH  073%=      5-min Rain = 0
KWA1 050643Z 29007KT 13/08 A2994 RMK A01 T01280081  RH  073%=      5-min Rain = 0
KWA1 050644Z 31007KT 13/08 A2994 RMK A01 T01270081  RH  074%=      5-min Rain = 0
KWA1 050645Z 31007KT 12/08 A2995 RMK A01 T01240078  RH  074%=      5-min Rain = 0
KWA1 050646Z 31008KT 12/07 A2995 RMK A01 T01190074  RH  074%=      5-min Rain = 0
KWA1 050647Z 29008KT 12/07 A2995 RMK A01 T01150074  RH  076%=      5-min Rain = 0
KWA1 050648Z 29007KT 11/08 A2995 RMK A01 T01140075  RH  077%=      5-min Rain = 0
KWA1 050649Z 30007KT 11/08 A2995 RMK A01 T01140076  RH  077%=      5-min Rain = 0
KWA1 050650Z 30008KT 11/08 A2995 RMK A01 T01140075  RH  077%=      5-min Rain = 0
KWA1 050651Z 29009KT 11/07 A2995 RMK A01 T01120074  RH  077%=      5-min Rain = 0
KWA1 050652Z 29009KT 11/08 A2994 RMK A01 T01120075  RH  078%=      5-min Rain = 0
KWA1 050653Z 28009KT 11/08 A2994 RMK A01 T01110076  RH  079%=      5-min Rain = 0
KWA1 050654Z 28008KT 11/08 A2994 RMK A01 T01110076  RH  079%=      5-min Rain = 0
KWA1 050655Z 28008KT 11/08 A2994 RMK A01 T01110075  RH  079%=      5-min Rain = 0
KWA1 050656Z 28009KT 11/07 A2994 RMK A01 T01120074  RH  078%=      5-min Rain = 0
KWA1 050657Z 28010KT 11/07 A2994 RMK A01 T01110074  RH  078%=      5-min Rain = 0
KWA1 050658Z 27009KT 11/08 A2994 RMK A01 T01110075  RH  078%=      5-min Rain = 0
KWA1 050659Z 27008KT 11/07 A2994 RMK A01 T01110074  RH  078%=      5-min Rain = 0
KWA1 050700Z 27008KT 11/07 A2994 RMK A01 T01110073  RH  077%=      5-min Rain = 0
KWA1 050701Z 29009KT 11/07 A2994 RMK A01 T01110073  RH  077%=      5-min Rain = 0
KWA1 050702Z 29010KT 11/07 A2994 RMK A01 T01110074  RH  078%=      5-min Rain = 0
KWA1 050703Z 29010KT 11/08 A2995 RMK A01 T01110075  RH  078%=      5-min Rain = 0
KWA1 050704Z 28010KT 11/08 A2995 RMK A01 T01120076  RH  078%=      5-min Rain = 0
KWA1 050705Z 27010KT 11/08 A2995 RMK A01 T01140078  RH  078%=      5-min Rain = 0
KWA1 050706Z 26010KT 12/08 A2995 RMK A01 T01160078  RH  077%=      5-min Rain = 0
KWA1 050707Z 26010KT 12/08 A2994 RMK A01 T01180078  RH  076%=      5-min Rain = 0
KWA1 050708Z 27008KT 12/08 A2995 RMK A01 T01190077  RH  075%=      5-min Rain = 0
KWA1 050709Z 31008KT 12/08 A2995 RMK A01 T01170075  RH  075%=      5-min Rain = 0
KWA1 050710Z 31011KT 11/07 A2995 RMK A01 T01130071  RH  075%=      5-min Rain = 0
KWA1 050711Z 30012KT 11/07 A2995 RMK A01 T01110073  RH  077%=      5-min Rain = 0
KWA1 050712Z 29011KT 11/08 A2995 RMK A01 T01120076  RH  078%=      5-min Rain = 0
KWA1 050713Z 27010KT 12/08 A2995 RMK A01 T01160079  RH  078%=      5-min Rain = 0
KWA1 050714Z 26010KT 12/08 A2994 RMK A01 T01210080  RH  076%=      5-min Rain = 0
KWA1 050715Z 25009KT 12/08 A2994 RMK A01 T01230078  RH  074%=      5-min Rain = 0
KWA1 050716Z 25009KT 12/08 A2994 RMK A01 T01240077  RH  073%=      5-min Rain = 0
KWA1 050717Z 27008KT 12/08 A2994 RMK A01 T01220076  RH  073%=      5-min Rain = 0
KWA1 050718Z 28008KT 12/08 A2995 RMK A01 T01200075  RH  074%=      5-min Rain = 0
KWA1 050719Z 28008KT 12/07 A2995 RMK A01 T01180074  RH  074%=      5-min Rain = 0
KWA1 050720Z 26008KT 12/07 A2994 RMK A01 T01160073  RH  075%=      5-min Rain = 0
KWA1 050721Z 26008KT 12/07 A2994 RMK A01 T01150072  RH  075%=      5-min Rain = 0
KWA1 050722Z 26008KT 12/07 A2994 RMK A01 T01150072  RH  075%=      5-min Rain = 0
KWA1 050723Z 28008KT 11/07 A2995 RMK A01 T01140072  RH  075%=      5-min Rain = 0
KWA1 050724Z 30008KT 11/07 A2995 RMK A01 T01130071  RH  076%=      5-min Rain = 0
KWA1 050725Z 27008KT 11/07 A2995 RMK A01 T01110070  RH  076%=      5-min Rain = 0
KWA1 050726Z 24008KT 11/07 A2994 RMK A01 T01110073  RH  077%=      5-min Rain = 0
KWA1 050727Z 23008KT 11/07 A2994 RMK A01 T01120072  RH  076%=      5-min Rain = 0
KWA1 050728Z 25008KT 11/07 A2994 RMK A01 T01120071  RH  076%=      5-min Rain = 0
KWA1 050729Z 26008KT 11/07 A2995 RMK A01 T01130071  RH  075%=      5-min Rain = 0
KWA1 050730Z 25008KT 11/07 A2995 RMK A01 T01120069  RH  075%=      5-min Rain = 0
KWA1 050731Z 24008KT 11/07 A2995 RMK A01 T01100067  RH  075%=      5-min Rain = 0
KWA1 050732Z 25007KT 11/07 A2995 RMK A01 T01080067  RH  075%=      5-min Rain = 0
KWA1 050733Z 29006KT 11/07 A2996 RMK A01 T01060065  RH  076%=      5-min Rain = 0
KWA1 050734Z 31007KT 10/07 A2996 RMK A01 T01040066  RH  077%=      5-min Rain = 0
KWA1 050735Z 28005KT 10/07 A2996 RMK A01 T01040069  RH  079%=      5-min Rain = 0
KWA1 050736Z 26006KT 10/07 A2996 RMK A01 T01040069  RH  079%=      5-min Rain = 0
KWA1 050737Z 26007KT 11/07 A2995 RMK A01 T01050069  RH  079%=      5-min Rain = 0
KWA1 050738Z 26007KT 11/07 A2995 RMK A01 T01050068  RH  078%=      5-min Rain = 0
KWA1 050739Z 27007KT 11/07 A2995 RMK A01 T01050068  RH  078%=      5-min Rain = 0
KWA1 050740Z 30007KT 11/07 A2996 RMK A01 T01050068  RH  078%=      5-min Rain = 0
KWA1 050741Z 31007KT 11/07 A2996 RMK A01 T01050067  RH  077%=      5-min Rain = 0
KWA1 050742Z 28007KT 10/07 A2996 RMK A01 T01040066  RH  077%=      5-min Rain = 0
KWA1 050743Z 27007KT 10/07 A2996 RMK A01 T01020066  RH  079%=      5-min Rain = 0
KWA1 050744Z 29008KT 10/07 A2996 RMK A01 T01010066  RH  079%=      5-min Rain = 0
KWA1 050745Z 29008KT 10/07 A2996 RMK A01 T00990065  RH  079%=      5-min Rain = 0
KWA1 050746Z 29008KT 10/07 A2996 RMK A01 T00980065  RH  080%=      5-min Rain = 0
KWA1 050747Z 28009KT 10/07 A2997 RMK A01 T00980066  RH  080%=      5-min Rain = 0
KWA1 050748Z 28008KT 10/07 A2997 RMK A01 T01000068  RH  081%=      5-min Rain = 0
KWA1 050749Z 28008KT 10/07 A2997 RMK A01 T01020069  RH  080%=      5-min Rain = 0
KWA1 050750Z 29008KT 10/07 A2997 RMK A01 T01040069  RH  079%=      5-min Rain = 0
KWA1 050751Z 29008KT 11/07 A2997 RMK A01 T01050070  RH  079%=      5-min Rain = 0
KWA1 050752Z 28008KT 11/07 A2997 RMK A01 T01060070  RH  078%=      5-min Rain = 0
KWA1 050753Z 28008KT 11/07 A2997 RMK A01 T01070070  RH  078%=      5-min Rain = 0
KWA1 050754Z 28008KT 11/07 A2997 RMK A01 T01060069  RH  078%=      5-min Rain = 0
KWA1 050755Z 28008KT 11/07 A2997 RMK A01 T01050068  RH  078%=      5-min Rain = 0
KWA1 050756Z 27007KT 11/07 A2997 RMK A01 T01050069  RH  078%=      5-min Rain = 0
KWA1 050757Z 28007KT 11/07 A2997 RMK A01 T01050069  RH  078%=      5-min Rain = 0
KWA1 050758Z 31006KT 11/07 A2997 RMK A01 T01060069  RH  078%=      5-min Rain = 0
KWA1 050759Z 29006KT 10/07 A2997 RMK A01 T01040068  RH  078%=      5-min Rain = 0
KWA1 050800Z 28006KT 10/07 A2997 RMK A01 T01040071  RH  080%=      5-min Rain = 0
KWA1 050801Z 28006KT 11/07 A2997 RMK A01 T01050071  RH  080%=      5-min Rain = 0
KWA1 050802Z 28007KT 11/07 A2997 RMK A01 T01060071  RH  079%=      5-min Rain = 0
KWA1 050803Z 29007KT 11/07 A2997 RMK A01 T01060071  RH  079%=      5-min Rain = 0
KWA1 050804Z 29007KT 11/07 A2997 RMK A01 T01060070  RH  079%=      5-min Rain = 0
KWA1 050805Z 27007KT 11/07 A2997 RMK A01 T01050070  RH  079%=      5-min Rain = 0
KWA1 050806Z 27006KT 10/07 A2997 RMK A01 T01040069  RH  079%=      5-min Rain = 0
KWA1 050807Z 27006KT 10/07 A2997 RMK A01 T01030067  RH  079%=      5-min Rain = 0
KWA1 050808Z 26007KT 10/07 A2997 RMK A01 T01010066  RH  078%=      5-min Rain = 0
KWA1 050809Z 26007KT 10/06 A2997 RMK A01 T01000064  RH  079%=      5-min Rain = 0
KWA1 050810Z 27007KT 10/06 A2997 RMK A01 T00980063  RH  079%=      5-min Rain = 0
KWA1 050811Z 27007KT 10/06 A2997 RMK A01 T00970063  RH  079%=      5-min Rain = 0
KWA1 050812Z 27007KT 10/06 A2997 RMK A01 T00960061  RH  079%=      5-min Rain = 0
KWA1 050813Z 27008KT 09/06 A2997 RMK A01 T00940060  RH  079%=      5-min Rain = 0
KWA1 050814Z 27008KT 09/06 A2997 RMK A01 T00930059  RH  079%=      5-min Rain = 0
KWA1 050815Z 27009KT 09/06 A2997 RMK A01 T00920058  RH  080%=      5-min Rain = 0
KWA1 050816Z 27008KT 09/06 A2997 RMK A01 T00920060  RH  080%=      5-min Rain = 0
KWA1 050817Z 26009KT 09/06 A2997 RMK A01 T00920060  RH  081%=      5-min Rain = 0
KWA1 050818Z 27009KT 09/06 A2997 RMK A01 T00920059  RH  080%=      5-min Rain = 0
KWA1 050819Z 26008KT 09/06 A2997 RMK A01 T00920059  RH  080%=      5-min Rain = 0
KWA1 050820Z 26009KT 09/06 A2997 RMK A01 T00920059  RH  080%=      5-min Rain = 0
KWA1 050821Z 26008KT 09/06 A2997 RMK A01 T00920059  RH  080%=      5-min Rain = 0
KWA1 050822Z 27008KT 09/06 A2997 RMK A01 T00920060  RH  080%=      5-min Rain = 0
KWA1 050823Z 27008KT 09/06 A2997 RMK A01 T00930062  RH  081%=      5-min Rain = 0
KWA1 050824Z 27008KT 09/06 A2997 RMK A01 T00940060  RH  080%=      5-min Rain = 0
KWA1 050825Z 27008KT 09/06 A2997 RMK A01 T00930059  RH  079%=      5-min Rain = 0
KWA1 050826Z 26009KT 09/06 A2997 RMK A01 T00920058  RH  080%=      5-min Rain = 0
KWA1 050827Z 26008KT 09/06 A2997 RMK A01 T00910058  RH  080%=      5-min Rain = 0
KWA1 050828Z 26008KT 09/06 A2997 RMK A01 T00910060  RH  081%=      5-min Rain = 0
KWA1 050829Z 26008KT 09/06 A2997 RMK A01 T00910059  RH  080%=      5-min Rain = 0
KWA1 050830Z 26009KT 09/06 A2997 RMK A01 T00900060  RH  081%=      5-min Rain = 0
KWA1 050831Z 26009KT 09/06 A2997 RMK A01 T00910060  RH  081%=      5-min Rain = 0
KWA1 050832Z 26009KT 09/06 A2997 RMK A01 T00910060  RH  081%=      5-min Rain = 0
KWA1 050833Z 25009KT 09/06 A2997 RMK A01 T00920062  RH  081%=      5-min Rain = 0
KWA1 050834Z 25009KT 09/06 A2997 RMK A01 T00930063  RH  082%=      5-min Rain = 0
KWA1 050835Z 25009KT 09/06 A2997 RMK A01 T00940063  RH  081%=      5-min Rain = 0
KWA1 050836Z 25009KT 09/06 A2997 RMK A01 T00940063  RH  081%=      5-min Rain = 0
KWA1 050837Z 25009KT 09/06 A2997 RMK A01 T00940062  RH  081%=      5-min Rain = 0
KWA1 050838Z 25009KT 09/06 A2997 RMK A01 T00940063  RH  081%=      5-min Rain = 0
KWA1 050839Z 25009KT 09/06 A2997 RMK A01 T00940063  RH  081%=      5-min Rain = 0
KWA1 050840Z 25010KT 10/06 A2997 RMK A01 T00950064  RH  081%=      5-min Rain = 0
KWA1 050841Z 25009KT 10/06 A2997 RMK A01 T00950063  RH  080%=      5-min Rain = 0
KWA1 050842Z 26008KT 10/06 A2997 RMK A01 T00960063  RH  080%=      5-min Rain = 0
KWA1 050843Z 26008KT 10/06 A2997 RMK A01 T00950062  RH  080%=      5-min Rain = 0
KWA1 050844Z 26008KT 09/06 A2997 RMK A01 T00940060  RH  080%=      5-min Rain = 0
KWA1 050845Z 26008KT 09/06 A2997 RMK A01 T00920060  RH  080%=      5-min Rain = 0
KWA1 050846Z 26008KT 09/06 A2997 RMK A01 T00920060  RH  080%=      5-min Rain = 0
KWA1 050847Z 26009KT 09/06 A2997 RMK A01 T00910060  RH  081%=      5-min Rain = 0
KWA1 050848Z 25009KT 09/06 A2997 RMK A01 T00900059  RH  080%=      5-min Rain = 0
KWA1 050849Z 25007KT 09/06 A2997 RMK A01 T00900058  RH  081%=      5-min Rain = 0
KWA1 050850Z 25008KT 09/06 A2997 RMK A01 T00890056  RH  080%=      5-min Rain = 0
KWA1 050851Z 25009KT 09/05 A2997 RMK A01 T00860053  RH  079%=      5-min Rain = 0
KWA1 050852Z 25009KT 09/05 A2997 RMK A01 T00850054  RH  081%=      5-min Rain = 0
KWA1 050853Z 25010KT 09/06 A2997 RMK A01 T00850055  RH  082%=      5-min Rain = 0
KWA1 050854Z 25009KT 09/06 A2997 RMK A01 T00850055  RH  082%=      5-min Rain = 0
KWA1 050855Z 25009KT 09/06 A2997 RMK A01 T00860057  RH  082%=      5-min Rain = 0
KWA1 050856Z 25009KT 09/06 A2997 RMK A01 T00870056  RH  081%=      5-min Rain = 0
KWA1 050857Z 25009KT 09/06 A2997 RMK A01 T00870056  RH  081%=      5-min Rain = 0
KWA1 050858Z 25010KT 09/06 A2997 RMK A01 T00860056  RH  081%=      5-min Rain = 0
KWA1 050859Z 25010KT 09/06 A2997 RMK A01 T00860055  RH  081%=      5-min Rain = 0
KWA1 050900Z 25010KT 09/06 A2997 RMK A01 T00860056  RH  081%=      5-min Rain = 0
KWA1 050901Z 25010KT 09/06 A2997 RMK A01 T00860055  RH  081%=      5-min Rain = 0
KWA1 050902Z 25010KT 09/05 A2997 RMK A01 T00860054  RH  081%=      5-min Rain = 0
KWA1 050903Z 25011KT 09/05 A2997 RMK A01 T00850054  RH  081%=      5-min Rain = 0
KWA1 050904Z 25011KT 09/05 A2997 RMK A01 T00850054  RH  081%=      5-min Rain = 0
KWA1 050905Z 25011KT 09/05 A2997 RMK A01 T00860054  RH  081%=      5-min Rain = 0
KWA1 050906Z 25011KT 09/06 A2997 RMK A01 T00860055  RH  081%=      5-min Rain = 0
KWA1 050907Z 25011KT 09/05 A2997 RMK A01 T00860054  RH  080%=      5-min Rain = 0
KWA1 050908Z 25011KT 09/06 A2997 RMK A01 T00870055  RH  080%=      5-min Rain = 0
KWA1 050909Z 25011KT 09/06 A2997 RMK A01 T00870055  RH  080%=      5-min Rain = 0
KWA1 050910Z 25011KT 09/06 A2997 RMK A01 T00870055  RH  080%=      5-min Rain = 0
KWA1 050911Z 25011KT 09/06 A2997 RMK A01 T00880055  RH  080%=      5-min Rain = 0
KWA1 050912Z 25010KT 09/05 A2997 RMK A01 T00880054  RH  080%=      5-min Rain = 0
KWA1 050913Z 25010KT 09/05 A2997 RMK A01 T00880054  RH  079%=      5-min Rain = 0
KWA1 050914Z 25010KT 09/05 A2997 RMK A01 T00870053  RH  079%=      5-min Rain = 0
KWA1 050915Z 25010KT 09/05 A2997 RMK A01 T00870053  RH  079%=      5-min Rain = 0
KWA1 050916Z 25010KT 09/05 A2997 RMK A01 T00870053  RH  079%=      5-min Rain = 0
KWA1 050917Z 26010KT 09/05 A2997 RMK A01 T00870052  RH  079%=      5-min Rain = 0
KWA1 050918Z 26010KT 09/05 A2997 RMK A01 T00870051  RH  078%=      5-min Rain = 0
KWA1 050919Z 25010KT 09/05 A2997 RMK A01 T00880050  RH  077%=      5-min Rain = 0
KWA1 050920Z 25010KT 09/05 A2997 RMK A01 T00880048  RH  076%=      5-min Rain = 0
KWA1 050921Z 25011KT 09/05 A2997 RMK A01 T00890049  RH  076%=      5-min Rain = 0
KWA1 050922Z 25011KT 09/05 A2997 RMK A01 T00890049  RH  076%=      5-min Rain = 0
KWA1 050923Z 25011KT 09/05 A2997 RMK A01 T00900049  RH  076%=      5-min Rain = 0
KWA1 050924Z 25011KT 09/05 A2997 RMK A01 T00910049  RH  075%=      5-min Rain = 0
KWA1 050925Z 25010KT 09/05 A2997 RMK A01 T00900049  RH  075%=      5-min Rain = 0
KWA1 050926Z 25009KT 09/05 A2997 RMK A01 T00900048  RH  075%=      5-min Rain = 0
KWA1 050927Z 25009KT 09/05 A2997 RMK A01 T00890048  RH  075%=      5-min Rain = 0
KWA1 050928Z 25009KT 09/05 A2996 RMK A01 T00880048  RH  076%=      5-min Rain = 0
KWA1 050929Z 25009KT 09/05 A2996 RMK A01 T00880048  RH  076%=      5-min Rain = 0
KWA1 050930Z 25009KT 09/05 A2996 RMK A01 T00870047  RH  076%=      5-min Rain = 0
KWA1 050931Z 25010KT 09/05 A2997 RMK A01 T00870047  RH  076%=      5-min Rain = 0
KWA1 050932Z 25011KT 09/05 A2997 RMK A01 T00870047  RH  076%=      5-min Rain = 0
KWA1 050933Z 25010KT 09/05 A2996 RMK A01 T00870046  RH  075%=      5-min Rain = 0
KWA1 050934Z 25011KT 09/05 A2996 RMK A01 T00870045  RH  075%=      5-min Rain = 0
KWA1 050935Z 25011KT 09/04 A2996 RMK A01 T00860044  RH  075%=      5-min Rain = 0
KWA1 050936Z 25011KT 09/04 A2996 RMK A01 T00850044  RH  075%=      5-min Rain = 0
KWA1 050937Z 25011KT 09/04 A2997 RMK A01 T00850044  RH  075%=      5-min Rain = 0
KWA1 050938Z 25011KT 09/04 A2997 RMK A01 T00850044  RH  075%=      5-min Rain = 0
KWA1 050939Z 25012KT 09/05 A2997 RMK A01 T00860045  RH  075%=      5-min Rain = 0
KWA1 050940Z 25011KT 09/05 A2997 RMK A01 T00870045  RH  075%=      5-min Rain = 0
KWA1 050941Z 25012KT 09/04 A2997 RMK A01 T00880044  RH  074%=      5-min Rain = 0
KWA1 050942Z 25011KT 09/04 A2997 RMK A01 T00880043  RH  074%=      5-min Rain = 0
KWA1 050943Z 25011KT 09/04 A2997 RMK A01 T00870043  RH  074%=      5-min Rain = 0
KWA1 050944Z 25012KT 09/04 A2997 RMK A01 T00870043  RH  074%=      5-min Rain = 0
KWA1 050945Z 25012KT 09/04 A2997 RMK A01 T00870042  RH  073%=      5-min Rain = 0
KWA1 050946Z 25012KT 09/04 A2997 RMK A01 T00880042  RH  073%=      5-min Rain = 0
KWA1 050947Z 25012KT 09/04 A2997 RMK A01 T00880041  RH  073%=      5-min Rain = 0
KWA1 050948Z 25012KT 09/04 A2997 RMK A01 T00870041  RH  073%=      5-min Rain = 0
KWA1 050949Z 25011KT 09/04 A2997 RMK A01 T00870041  RH  073%=      5-min Rain = 0
KWA1 050950Z 24012KT 09/04 A2997 RMK A01 T00860040  RH  073%=      5-min Rain = 0
KWA1 050951Z 24012KT 09/04 A2997 RMK A01 T00860041  RH  074%=      5-min Rain = 0
KWA1 050952Z 24012KT 09/04 A2997 RMK A01 T00850041  RH  074%=      5-min Rain = 0
KWA1 050953Z 24011KT 08/04 A2997 RMK A01 T00840041  RH  074%=      5-min Rain = 0
KWA1 050954Z 24011KT 08/04 A2997 RMK A01 T00840041  RH  074%=      5-min Rain = 0
KWA1 050955Z 24011KT 08/04 A2997 RMK A01 T00840040  RH  074%=      5-min Rain = 0
KWA1 050956Z 24011KT 08/04 A2997 RMK A01 T00840040  RH  074%=      5-min Rain = 0
KWA1 050957Z 24010KT 08/04 A2997 RMK A01 T00840039  RH  073%=      5-min Rain = 0
KWA1 050958Z 24010KT 08/04 A2997 RMK A01 T00830038  RH  073%=      5-min Rain = 0
KWA1 050959Z 24010KT 08/04 A2997 RMK A01 T00820037  RH  073%=      5-min Rain = 0
KWA1 051000Z 24010KT 08/04 A2997 RMK A01 T00820037  RH  073%=      5-min Rain = 0
KWA1 051001Z 24010KT 08/04 A2997 RMK A01 T00820036  RH  073%=      5-min Rain = 0
KWA1 051002Z 24010KT 08/04 A2997 RMK A01 T00820035  RH  072%=      5-min Rain = 0
KWA1 051003Z 24009KT 08/04 A2997 RMK A01 T00810035  RH  073%=      5-min Rain = 0
KWA1 051004Z 24010KT 08/03 A2997 RMK A01 T00800034  RH  073%=      5-min Rain = 0
KWA1 051005Z 24010KT 08/03 A2997 RMK A01 T00800034  RH  073%=      5-min Rain = 0
KWA1 051006Z 23010KT 08/03 A2997 RMK A01 T00800033  RH  072%=      5-min Rain = 0
KWA1 051007Z 23010KT 08/03 A2997 RMK A01 T00790033  RH  073%=      5-min Rain = 0
KWA1 051008Z 23011KT 08/03 A2997 RMK A01 T00780033  RH  073%=      5-min Rain = 0
KWA1 051009Z 23011KT 08/03 A2997 RMK A01 T00780033  RH  073%=      5-min Rain = 0
KWA1 051010Z 23011KT 08/03 A2997 RMK A01 T00780033  RH  073%=      5-min Rain = 0
KWA1 051011Z 23011KT 08/03 A2997 RMK A01 T00780032  RH  073%=      5-min Rain = 0
KWA1 051012Z 23011KT 08/03 A2997 RMK A01 T00780031  RH  073%=      5-min Rain = 0
KWA1 051013Z 23011KT 08/03 A2997 RMK A01 T00770031  RH  072%=      5-min Rain = 0
KWA1 051014Z 23011KT 08/03 A2997 RMK A01 T00780030  RH  072%=      5-min Rain = 0
KWA1 051015Z 24011KT 08/03 A2997 RMK A01 T00780030  RH  071%=      5-min Rain = 0
KWA1 051016Z 23012KT 08/03 A2997 RMK A01 T00780028  RH  071%=      5-min Rain = 0
KWA1 051017Z 23011KT 08/03 A2997 RMK A01 T00780028  RH  070%=      5-min Rain = 0
KWA1 051018Z 24011KT 08/03 A2997 RMK A01 T00790027  RH  070%=      5-min Rain = 0
KWA1 051019Z 23011KT 08/03 A2997 RMK A01 T00790026  RH  069%=      5-min Rain = 0
KWA1 051020Z 23011KT 08/03 A2997 RMK A01 T00800026  RH  069%=      5-min Rain = 0
KWA1 051021Z 23011KT 08/03 A2997 RMK A01 T00800025  RH  068%=      5-min Rain = 0
KWA1 051022Z 23012KT 08/03 A2997 RMK A01 T00810025  RH  068%=      5-min Rain = 0
KWA1 051023Z 23012KT 08/02 A2997 RMK A01 T00810024  RH  067%=      5-min Rain = 0
KWA1 051024Z 23011KT 08/02 A2997 RMK A01 T00820023  RH  066%=      5-min Rain = 0
KWA1 051025Z 23011KT 08/02 A2997 RMK A01 T00830022  RH  065%=      5-min Rain = 0
KWA1 051026Z 23012KT 08/02 A2997 RMK A01 T00830022  RH  065%=      5-min Rain = 0
KWA1 051027Z 23011KT 08/02 A2997 RMK A01 T00820021  RH  065%=      5-min Rain = 0
KWA1 051028Z 23012KT 08/02 A2997 RMK A01 T00820020  RH  065%=      5-min Rain = 0
KWA1 051029Z 23011KT 08/02 A2997 RMK A01 T00820019  RH  065%=      5-min Rain = 0
KWA1 051030Z 23011KT 08/02 A2997 RMK A01 T00820018  RH  064%=      5-min Rain = 0
KWA1 051031Z 23011KT 08/02 A2997 RMK A01 T00820017  RH  064%=      5-min Rain = 0
KWA1 051032Z 23011KT 08/02 A2997 RMK A01 T00820016  RH  063%=      5-min Rain = 0
KWA1 051033Z 23012KT 08/02 A2997 RMK A01 T00820016  RH  063%=      5-min Rain = 0
KWA1 051034Z 23011KT 08/02 A2997 RMK A01 T00820016  RH  063%=      5-min Rain = 0
KWA1 051035Z 23011KT 08/02 A2997 RMK A01 T00810015  RH  063%=      5-min Rain = 0
KWA1 051036Z 24011KT 08/01 A2997 RMK A01 T00810014  RH  063%=      5-min Rain = 0
KWA1 051037Z 24011KT 08/01 A2997 RMK A01 T00810014  RH  063%=      5-min Rain = 0
KWA1 051038Z 24012KT 08/01 A2997 RMK A01 T00800013  RH  062%=      5-min Rain = 0
KWA1 051039Z 24011KT 08/01 A2997 RMK A01 T00810012  RH  062%=      5-min Rain = 0
KWA1 051040Z 24011KT 08/01 A2997 RMK A01 T00810011  RH  061%=      5-min Rain = 0
KWA1 051041Z 24011KT 08/01 A2997 RMK A01 T00810011  RH  061%=      5-min Rain = 0
KWA1 051042Z 24011KT 08/01 A2997 RMK A01 T00810011  RH  061%=      5-min Rain = 0
KWA1 051043Z 24011KT 08/01 A2997 RMK A01 T00800010  RH  061%=      5-min Rain = 0
KWA1 051044Z 24011KT 08/01 A2997 RMK A01 T00800010  RH  061%=      5-min Rain = 0
KWA1 051045Z 24011KT 08/01 A2997 RMK A01 T00800010  RH  061%=      5-min Rain = 0
KWA1 051046Z 24011KT 08/01 A2997 RMK A01 T00790009  RH  061%=      5-min Rain = 0
KWA1 051047Z 24011KT 08/01 A2997 RMK A01 T00790009  RH  061%=      5-min Rain = 0
KWA1 051048Z 24011KT 08/01 A2997 RMK A01 T00790008  RH  061%=      5-min Rain = 0
KWA1 051049Z 24011KT 08/01 A2997 RMK A01 T00780007  RH  061%=      5-min Rain = 0
KWA1 051050Z 24011KT 08/01 A2997 RMK A01 T00770007  RH  061%=      5-min Rain = 0
KWA1 051051Z 24011KT 08/01 A2997 RMK A01 T00770006  RH  061%=      5-min Rain = 0
KWA1 051052Z 24010KT 08/01 A2997 RMK A01 T00770005  RH  060%=      5-min Rain = 0
KWA1 051053Z 24010KT 08/01 A2997 RMK A01 T00770005  RH  060%=      5-min Rain = 0
KWA1 051054Z 24010KT 08/00 A2997 RMK A01 T00760004  RH  060%=      5-min Rain = 0
KWA1 051055Z 24010KT 08/00 A2997 RMK A01 T00750004  RH  061%=      5-min Rain = 0
KWA1 051056Z 24010KT 08/00 A2998 RMK A01 T00750004  RH  061%=      5-min Rain = 0
KWA1 051057Z 24010KT 07/00 A2998 RMK A01 T00740004  RH  061%=      5-min Rain = 0
KWA1 051058Z 25010KT 07/00 A2998 RMK A01 T00730004  RH  062%=      5-min Rain = 0
KWA1 051059Z 24010KT 07/00 A2998 RMK A01 T00720004  RH  062%=      5-min Rain = 0
KWA1 051100Z 25010KT 07/00 A2998 RMK A01 T00720004  RH  062%=      5-min Rain = 0
KWA1 051101Z 24011KT 07/00 A2998 RMK A01 T00710004  RH  062%=      5-min Rain = 0
KWA1 051102Z 24011KT 07/00 A2998 RMK A01 T00720003  RH  062%=      5-min Rain = 0
KWA1 051103Z 24011KT 07/00 A2998 RMK A01 T00720003  RH  062%=      5-min Rain = 0
KWA1 051104Z 24011KT 07/00 A2998 RMK A01 T00720003  RH  062%=      5-min Rain = 0
KWA1 051105Z 24011KT 07/00 A2998 RMK A01 T00720003  RH  062%=      5-min Rain = 0
KWA1 051106Z 24010KT 07/00 A2998 RMK A01 T00700003  RH  062%=      5-min Rain = 0
KWA1 051107Z 24010KT 07/00 A2998 RMK A01 T00680002  RH  063%=      5-min Rain = 0
KWA1 051108Z 24010KT 07/00 A2998 RMK A01 T00670002  RH  063%=      5-min Rain = 0
KWA1 051109Z 24010KT 07/00 A2998 RMK A01 T00650002  RH  064%=      5-min Rain = 0
KWA1 051110Z 24010KT 07/00 A2998 RMK A01 T00650002  RH  064%=      5-min Rain = 0
KWA1 051111Z 24010KT 06/00 A2998 RMK A01 T00640002  RH  064%=      5-min Rain = 0
KWA1 051112Z 24010KT 06/00 A2998 RMK A01 T00620001  RH  065%=      5-min Rain = 0
KWA1 051113Z 24010KT 06/00 A2998 RMK A01 T00620002  RH  065%=      5-min Rain = 0
KWA1 051114Z 24010KT 06/00 A2998 RMK A01 T00610001  RH  065%=      5-min Rain = 0
KWA1 051115Z 24010KT 06/00 A2998 RMK A01 T00620001  RH  065%=      5-min Rain = 0
KWA1 051116Z 24010KT 06/00 A2998 RMK A01 T00610001  RH  065%=      5-min Rain = 0
KWA1 051117Z 24010KT 06/00 A2998 RMK A01 T00610001  RH  065%=      5-min Rain = 0
KWA1 051118Z 24010KT 06/00 A2998 RMK A01 T00610001  RH  065%=      5-min Rain = 0
KWA1 051119Z 24010KT 06/00 A2998 RMK A01 T00620001  RH  065%=      5-min Rain = 0
KWA1 051120Z 24010KT 06/00 A2998 RMK A01 T006100-0  RH  065%=      5-min Rain = 0
KWA1 051121Z 24009KT 06/00 A2998 RMK A01 T006200-0  RH  064%=      5-min Rain = 0
KWA1 051122Z 24010KT 06/00 A2999 RMK A01 T006200-0  RH  064%=      5-min Rain = 0
KWA1 051123Z 24010KT 06/00 A2999 RMK A01 T006200-0  RH  065%=      5-min Rain = 0
KWA1 051124Z 24010KT 06/M00 A2999 RMK A01 T00601001  RH  065%=      5-min Rain = 0
KWA1 051125Z 24010KT 06/M00 A2999 RMK A01 T00591002  RH  065%=      5-min Rain = 0
KWA1 051126Z 25010KT 06/M00 A2999 RMK A01 T00581002  RH  065%=      5-min Rain = 0
KWA1 051127Z 25010KT 06/M00 A2999 RMK A01 T00591002  RH  065%=      5-min Rain = 0
KWA1 051128Z 25010KT 06/M00 A2999 RMK A01 T00621002  RH  064%=      5-min Rain = 0
KWA1 051129Z 25010KT 06/M00 A2999 RMK A01 T00631002  RH  063%=      5-min Rain = 0
KWA1 051130Z 25010KT 06/M00 A2999 RMK A01 T00641002  RH  063%=      5-min Rain = 0
KWA1 051131Z 25009KT 06/M00 A2999 RMK A01 T00641002  RH  063%=      5-min Rain = 0
KWA1 051132Z 25010KT 06/M00 A2999 RMK A01 T00631002  RH  063%=      5-min Rain = 0
KWA1 051133Z 25009KT 06/M00 A2999 RMK A01 T00631003  RH  063%=      5-min Rain = 0
KWA1 051134Z 25009KT 06/M00 A2999 RMK A01 T00641003  RH  062%=      5-min Rain = 0
KWA1 051135Z 25010KT 07/M00 A2999 RMK A01 T00661004  RH  061%=      5-min Rain = 0
KWA1 051136Z 25011KT 07/M00 A2999 RMK A01 T00661004  RH  061%=      5-min Rain = 0
KWA1 051137Z 25012KT 07/M00 A2999 RMK A01 T00691004  RH  060%=      5-min Rain = 0
KWA1 051138Z 25012KT 07/M00 A2999 RMK A01 T00711004  RH  059%=      5-min Rain = 0
KWA1 051139Z 25011KT 07/M00 A2999 RMK A01 T00721004  RH  059%=      5-min Rain = 0
KWA1 051140Z 25012KT 07/M01 A2999 RMK A01 T00711005  RH  059%=      5-min Rain = 0
KWA1 051141Z 26012KT 07/M01 A30 RMK A01 T00711006  RH  058%=      5-min Rain = 0
KWA1 051142Z 26012KT 07/M01 A30 RMK A01 T00721006  RH  058%=      5-min Rain = 0
KWA1 051143Z 26012KT 07/M01 A30 RMK A01 T00721006  RH  058%=      5-min Rain = 0
KWA1 051144Z 25011KT 07/M01 A30 RMK A01 T00721006  RH  058%=      5-min Rain = 0
KWA1 051145Z 25012KT 07/M01 A30 RMK A01 T00711006  RH  058%=      5-min Rain = 0
KWA1 051146Z 26012KT 07/M01 A2999 RMK A01 T00701006  RH  058%=      5-min Rain = 0
KWA1 051147Z 26012KT 07/M01 A30 RMK A01 T00701007  RH  058%=      5-min Rain = 0
KWA1 051148Z 26012KT 07/M01 A30 RMK A01 T00691006  RH  058%=      5-min Rain = 0
KWA1 051149Z 26012KT 07/M01 A30 RMK A01 T00691007  RH  059%=      5-min Rain = 0
KWA1 051150Z 26012KT 07/M01 A30 RMK A01 T00691008  RH  058%=      5-min Rain = 0
KWA1 051151Z 26011KT 07/M01 A30 RMK A01 T00711008  RH  057%=      5-min Rain = 0
KWA1 051152Z 26012KT 07/M01 A30 RMK A01 T00711008  RH  057%=      5-min Rain = 0
KWA1 051153Z 26012KT 07/M01 A30 RMK A01 T00711007  RH  057%=      5-min Rain = 0
KWA1 051154Z 26012KT 07/M01 A30 RMK A01 T00701008  RH  057%=      5-min Rain = 0
KWA1 051155Z 26011KT 07/M01 A30 RMK A01 T00701008  RH  057%=      5-min Rain = 0
KWA1 051156Z 25011KT 07/M01 A30 RMK A01 T00701008  RH  057%=      5-min Rain = 0
KWA1 051157Z 26012KT 07/M01 A30 RMK A01 T00701008  RH  058%=      5-min Rain = 0
KWA1 051158Z 25012KT 07/M01 A30 RMK A01 T00721009  RH  056%=      5-min Rain = 0
KWA1 051159Z 25013KT 08/M01 A30 RMK A01 T00751009  RH  055%=      5-min Rain = 0
KWA1 051200Z 26012KT 08/M01 A30 RMK A01 T00771009  RH  054%=      5-min Rain = 0
KWA1 051201Z 26013KT 08/M01 A30 RMK A01 T00761010  RH  055%=      5-min Rain = 0
KWA1 051202Z 26012KT 07/M01 A30 RMK A01 T00741010  RH  055%=      5-min Rain = 0
KWA1 051203Z 26012KT 07/M01 A30 RMK A01 T00731010  RH  056%=      5-min Rain = 0
KWA1 051204Z 26011KT 07/M01 A30 RMK A01 T00721010  RH  056%=      5-min Rain = 0
KWA1 051205Z 26012KT 07/M01 A30 RMK A01 T00721010  RH  056%=      5-min Rain = 0
KWA1 051206Z 25011KT 07/M01 A30 RMK A01 T00721010  RH  056%=      5-min Rain = 0
KWA1 051207Z 26010KT 07/M01 A30 RMK A01 T00721010  RH  056%=      5-min Rain = 0
KWA1 051208Z 26011KT 07/M01 A30 RMK A01 T00721010  RH  056%=      5-min Rain = 0
KWA1 051209Z 26010KT 07/M01 A3001 RMK A01 T00721010  RH  056%=      5-min Rain = 0
KWA1 051210Z 26011KT 07/M01 A3001 RMK A01 T00721010  RH  056%=      5-min Rain = 0
KWA1 051211Z 26011KT 07/M01 A3001 RMK A01 T00711010  RH  056%=      5-min Rain = 0
KWA1 051212Z 26012KT 07/M01 A3001 RMK A01 T00711011  RH  056%=      5-min Rain = 0
KWA1 051213Z 26012KT 07/M01 A3001 RMK A01 T00711010  RH  056%=      5-min Rain = 0
KWA1 051214Z 26012KT 07/M01 A3001 RMK A01 T00711010  RH  056%=      5-min Rain = 0
KWA1 051215Z 26013KT 07/M01 A3001 RMK A01 T00701011  RH  056%=      5-min Rain = 0
KWA1 051216Z 26012KT 07/M01 A3001 RMK A01 T00711010  RH  056%=      5-min Rain = 0
KWA1 051217Z 26012KT 07/M01 A3001 RMK A01 T00721011  RH  056%=      5-min Rain = 0
KWA1 051218Z 26012KT 07/M01 A3001 RMK A01 T00741011  RH  055%=      5-min Rain = 0
KWA1 051219Z 26012KT 08/M01 A3001 RMK A01 T00751012  RH  054%=      5-min Rain = 0
KWA1 051220Z 26012KT 08/M01 A3001 RMK A01 T00781012  RH  053%=      5-min Rain = 0
KWA1 051221Z 26011KT 08/M01 A3001 RMK A01 T00801012  RH  052%=      5-min Rain = 0
KWA1 051222Z 26011KT 08/M01 A3001 RMK A01 T00801012  RH  052%=      5-min Rain = 0
KWA1 051223Z 26011KT 08/M01 A3001 RMK A01 T00791013  RH  052%=      5-min Rain = 0
KWA1 051224Z 27010KT 08/M01 A3001 RMK A01 T00791012  RH  052%=      5-min Rain = 0
KWA1 051225Z 27010KT 08/M01 A3001 RMK A01 T00791013  RH  052%=      5-min Rain = 0
KWA1 051226Z 27010KT 08/M01 A3001 RMK A01 T00801014  RH  052%=      5-min Rain = 0
KWA1 051227Z 27010KT 08/M01 A3001 RMK A01 T00801013  RH  052%=      5-min Rain = 0
KWA1 051228Z 27010KT 08/M01 A3001 RMK A01 T00801013  RH  052%=      5-min Rain = 0
KWA1 051229Z 27010KT 08/M01 A3001 RMK A01 T00791013  RH  052%=      5-min Rain = 0
KWA1 051230Z 27010KT 08/M01 A3001 RMK A01 T00781013  RH  053%=      5-min Rain = 0
KWA1 051231Z 27010KT 08/M01 A3001 RMK A01 T00771013  RH  053%=      5-min Rain = 0
KWA1 051232Z 27010KT 08/M01 A3001 RMK A01 T00781013  RH  052%=      5-min Rain = 0
KWA1 051233Z 27010KT 08/M01 A3001 RMK A01 T00781013  RH  052%=      5-min Rain = 0
KWA1 051234Z 28009KT 08/M02 A3001 RMK A01 T00791015  RH  052%=      5-min Rain = 0
KWA1 051235Z 27010KT 08/M01 A3001 RMK A01 T00801014  RH  052%=      5-min Rain = 0
KWA1 051236Z 27011KT 08/M01 A3001 RMK A01 T00791014  RH  052%=      5-min Rain = 0
KWA1 051237Z 27011KT 08/M01 A3001 RMK A01 T00801014  RH  052%=      5-min Rain = 0
KWA1 051238Z 27010KT 08/M01 A3001 RMK A01 T00791014  RH  052%=      5-min Rain = 0
KWA1 051239Z 28010KT 08/M01 A3001 RMK A01 T00791014  RH  052%=      5-min Rain = 0
KWA1 051240Z 28011KT 08/M01 A3001 RMK A01 T00791014  RH  052%=      5-min Rain = 0
KWA1 051241Z 28011KT 08/M01 A3001 RMK A01 T00791014  RH  052%=      5-min Rain = 0
KWA1 051242Z 28012KT 08/M01 A3001 RMK A01 T00791013  RH  052%=      5-min Rain = 0
KWA1 051243Z 28011KT 08/M01 A3001 RMK A01 T00781013  RH  052%=      5-min Rain = 0
KWA1 051244Z 28011KT 08/M01 A3001 RMK A01 T00771013  RH  053%=      5-min Rain = 0
KWA1 051245Z 28011KT 08/M01 A3001 RMK A01 T00771014  RH  053%=      5-min Rain = 0
KWA1 051246Z 28011KT 08/M01 A3002 RMK A01 T00771013  RH  053%=      5-min Rain = 0
KWA1 051247Z 28011KT 08/M01 A3002 RMK A01 T00761014  RH  053%=      5-min Rain = 0
KWA1 051248Z 28012KT 08/M01 A3002 RMK A01 T00751014  RH  053%=      5-min Rain = 0
KWA1 051249Z 28011KT 08/M02 A3002 RMK A01 T00751015  RH  053%=      5-min Rain = 0
KWA1 051250Z 28012KT 08/M01 A3002 RMK A01 T00761014  RH  053%=      5-min Rain = 0
KWA1 051251Z 28011KT 08/M02 A3002 RMK A01 T00761015  RH  053%=      5-min Rain = 0
KWA1 051252Z 28012KT 08/M01 A3002 RMK A01 T00761014  RH  053%=      5-min Rain = 0
KWA1 051253Z 28011KT 08/M01 A3002 RMK A01 T00761014  RH  053%=      5-min Rain = 0
KWA1 051254Z 28011KT 08/M02 A3002 RMK A01 T00751015  RH  053%=      5-min Rain = 0
KWA1 051255Z 28010KT 08/M02 A3002 RMK A01 T00751015  RH  053%=      5-min Rain = 0
KWA1 051256Z 28010KT 07/M02 A3002 RMK A01 T00741015  RH  053%=      5-min Rain = 0
KWA1 051257Z 28010KT 07/M02 A3002 RMK A01 T00731015  RH  054%=      5-min Rain = 0
KWA1 051258Z 27010KT 07/M02 A3002 RMK A01 T00721015  RH  054%=      5-min Rain = 0
KWA1 051259Z 27010KT 07/M02 A3002 RMK A01 T00711015  RH  054%=      5-min Rain = 0
KWA1 051300Z 27011KT 07/M02 A3002 RMK A01 T00701015  RH  055%=      5-min Rain = 0
KWA1 051301Z 27010KT 07/M02 A3002 RMK A01 T00701015  RH  055%=      5-min Rain = 0
KWA1 051302Z 27010KT 07/M02 A3002 RMK A01 T00701015  RH  055%=      5-min Rain = 0
KWA1 051303Z 27010KT 07/M02 A3002 RMK A01 T00701015  RH  055%=      5-min Rain = 0
KWA1 051304Z 27011KT 07/M02 A3002 RMK A01 T00701015  RH  055%=      5-min Rain = 0
KWA1 051305Z 27010KT 07/M02 A3002 RMK A01 T00691016  RH  055%=      5-min Rain = 0
KWA1 051306Z 27011KT 07/M02 A3002 RMK A01 T00701015  RH  055%=      5-min Rain = 0
KWA1 051307Z 27011KT 07/M02 A3002 RMK A01 T00711016  RH  054%=      5-min Rain = 0
KWA1 051308Z 27011KT 07/M02 A3002 RMK A01 T00721016  RH  054%=      5-min Rain = 0
KWA1 051309Z 27011KT 07/M02 A3002 RMK A01 T00721015  RH  054%=      5-min Rain = 0
KWA1 051310Z 27010KT 07/M02 A3002 RMK A01 T00711015  RH  054%=      5-min Rain = 0
KWA1 051311Z 27010KT 07/M02 A3002 RMK A01 T00701016  RH  054%=      5-min Rain = 0
KWA1 051312Z 27010KT 07/M02 A3002 RMK A01 T00691016  RH  055%=      5-min Rain = 0
KWA1 051313Z 27010KT 07/M02 A3002 RMK A01 T00691015  RH  055%=      5-min Rain = 0
KWA1 051314Z 27009KT 07/M02 A3002 RMK A01 T00681016  RH  055%=      5-min Rain = 0
KWA1 051315Z 27010KT 07/M02 A3003 RMK A01 T00681016  RH  055%=      5-min Rain = 0
KWA1 051316Z 27010KT 07/M02 A3003 RMK A01 T00671016  RH  056%=      5-min Rain = 0
KWA1 051317Z 27010KT 07/M02 A3003 RMK A01 T00671016  RH  056%=      5-min Rain = 0
KWA1 051318Z 26010KT 07/M02 A3003 RMK A01 T00671015  RH  056%=      5-min Rain = 0
KWA1 051319Z 26009KT 07/M02 A3003 RMK A01 T00661015  RH  056%=      5-min Rain = 0
KWA1 051320Z 26009KT 07/M02 A3003 RMK A01 T00651015  RH  057%=      5-min Rain = 0
KWA1 051321Z 26010KT 07/M01 A3003 RMK A01 T00651014  RH  057%=      5-min Rain = 0
KWA1 051322Z 26010KT 06/M01 A3003 RMK A01 T00641014  RH  057%=      5-min Rain = 0
KWA1 051323Z 27009KT 06/M01 A3003 RMK A01 T00641013  RH  058%=      5-min Rain = 0
KWA1 051324Z 27009KT 06/M01 A3003 RMK A01 T00641013  RH  058%=      5-min Rain = 0
KWA1 051325Z 27009KT 06/M01 A3003 RMK A01 T00631013  RH  058%=      5-min Rain = 0
KWA1 051326Z 27009KT 06/M01 A3003 RMK A01 T00631013  RH  058%=      5-min Rain = 0
KWA1 051327Z 27009KT 06/M01 A3003 RMK A01 T00631013  RH  058%=      5-min Rain = 0
KWA1 051328Z 26009KT 06/M01 A3003 RMK A01 T00641012  RH  058%=      5-min Rain = 0
KWA1 051329Z 26010KT 07/M01 A3003 RMK A01 T00651012  RH  058%=      5-min Rain = 0
KWA1 051330Z 26010KT 07/M01 A3003 RMK A01 T00661012  RH  058%=      5-min Rain = 0
KWA1 051331Z 26010KT 07/M01 A3003 RMK A01 T00671012  RH  057%=      5-min Rain = 0
KWA1 051332Z 26010KT 07/M01 A3003 RMK A01 T00681011  RH  057%=      5-min Rain = 0
KWA1 051333Z 26010KT 07/M01 A3003 RMK A01 T00691011  RH  057%=      5-min Rain = 0
KWA1 051334Z 26010KT 07/M01 A3003 RMK A01 T00701011  RH  056%=      5-min Rain = 0
KWA1 051335Z 26010KT 07/M01 A3004 RMK A01 T00701011  RH  056%=      5-min Rain = 0
KWA1 051336Z 26009KT 07/M01 A3004 RMK A01 T00701011  RH  056%=      5-min Rain = 0
KWA1 051337Z 26009KT 07/M01 A3004 RMK A01 T00711010  RH  057%=      5-min Rain = 0
KWA1 051338Z 26009KT 07/M01 A3004 RMK A01 T00711009  RH  057%=      5-min Rain = 0
KWA1 051339Z 27008KT 07/M01 A3004 RMK A01 T00701008  RH  058%=      5-min Rain = 0
KWA1 051340Z 27008KT 07/M01 A3004 RMK A01 T00701007  RH  058%=      5-min Rain = 0
KWA1 051341Z 27008KT 07/M01 A3004 RMK A01 T00701006  RH  058%=      5-min Rain = 0
KWA1 051342Z 26008KT 07/M01 A3004 RMK A01 T00711005  RH  058%=      5-min Rain = 0
KWA1 051343Z 26008KT 07/M01 A3004 RMK A01 T00711005  RH  058%=      5-min Rain = 0
KWA1 051344Z 27009KT 07/M01 A3004 RMK A01 T00721005  RH  058%=      5-min Rain = 0
KWA1 051345Z 27008KT 07/M00 A3004 RMK A01 T00731004  RH  058%=      5-min Rain = 0
KWA1 051346Z 27008KT 07/M00 A3004 RMK A01 T00741004  RH  058%=      5-min Rain = 0
KWA1 051347Z 27009KT 08/M00 A3004 RMK A01 T00761004  RH  057%=      5-min Rain = 0
KWA1 051348Z 27008KT 08/M00 A3004 RMK A01 T00781003  RH  056%=      5-min Rain = 0
KWA1 051349Z 27009KT 08/M00 A3004 RMK A01 T00811004  RH  055%=      5-min Rain = 0
KWA1 051350Z 27008KT 08/M00 A3004 RMK A01 T00831004  RH  054%=      5-min Rain = 0
KWA1 051351Z 28009KT 08/M00 A3004 RMK A01 T00841003  RH  054%=      5-min Rain = 0
KWA1 051352Z 28010KT 09/M01 A3004 RMK A01 T00861005  RH  053%=      5-min Rain = 0
KWA1 051353Z 28010KT 09/M00 A3005 RMK A01 T00881004  RH  053%=      5-min Rain = 0
KWA1 051354Z 28010KT 09/M00 A3005 RMK A01 T00891003  RH  053%=      5-min Rain = 0
KWA1 051355Z 28011KT 09/M00 A3005 RMK A01 T00901001  RH  053%=      5-min Rain = 0
KWA1 051356Z 28011KT 09/M00 A3005 RMK A01 T00921002  RH  052%=      5-min Rain = 0
KWA1 051357Z 28010KT 09/M00 A3005 RMK A01 T00941001  RH  052%=      5-min Rain = 0
KWA1 051358Z 28011KT 10/M00 A3005 RMK A01 T00951001  RH  051%=      5-min Rain = 0
KWA1 051359Z 28011KT 10/M00 A3005 RMK A01 T00971003  RH  050%=      5-min Rain = 0
KWA1 051400Z 28011KT 10/M00 A3005 RMK A01 T00981002  RH  050%=      5-min Rain = 0
KWA1 051401Z 28010KT 10/M00 A3005 RMK A01 T00981002  RH  050%=      5-min Rain = 0
KWA1 051402Z 28011KT 10/M00 A3005 RMK A01 T00991001  RH  050%=      5-min Rain = 0
KWA1 051403Z 28010KT 10/M00 A3006 RMK A01 T00991001  RH  050%=      5-min Rain = 0
KWA1 051404Z 28010KT 10/00 A3006 RMK A01 T01000001  RH  050%=      5-min Rain = 0
KWA1 051405Z 28011KT 10/00 A3006 RMK A01 T01000001  RH  050%=      5-min Rain = 0
KWA1 051406Z 28011KT 10/00 A3006 RMK A01 T01010001  RH  050%=      5-min Rain = 0
KWA1 051407Z 28011KT 10/00 A3006 RMK A01 T01010002  RH  050%=      5-min Rain = 0
KWA1 051408Z 28010KT 10/00 A3006 RMK A01 T01020001  RH  050%=      5-min Rain = 0
KWA1 051409Z 28011KT 10/00 A3006 RMK A01 T01020000  RH  049%=      5-min Rain = 0
KWA1 051410Z 28010KT 10/00 A3006 RMK A01 T01020002  RH  050%=      5-min Rain = 0
KWA1 051411Z 28010KT 10/00 A3006 RMK A01 T01030001  RH  049%=      5-min Rain = 0
KWA1 051412Z 28010KT 10/00 A3006 RMK A01 T01030003  RH  050%=      5-min Rain = 0
KWA1 051413Z 28010KT 10/00 A3006 RMK A01 T01040003  RH  050%=      5-min Rain = 0
KWA1 051414Z 28009KT 11/00 A3006 RMK A01 T01050004  RH  049%=      5-min Rain = 0
KWA1 051415Z 28010KT 11/00 A3006 RMK A01 T01060003  RH  049%=      5-min Rain = 0
KWA1 051416Z 28009KT 11/01 A3006 RMK A01 T01060005  RH  050%=      5-min Rain = 0
KWA1 051417Z 28011KT 11/01 A3006 RMK A01 T01070005  RH  049%=      5-min Rain = 0
KWA1 051418Z 28010KT 11/00 A3006 RMK A01 T01080004  RH  049%=      5-min Rain = 0
KWA1 051419Z 28010KT 11/00 A3006 RMK A01 T01080003  RH  048%=      5-min Rain = 0
KWA1 051420Z 28010KT 11/01 A3006 RMK A01 T01090005  RH  049%=      5-min Rain = 0
KWA1 051421Z 28010KT 11/00 A3006 RMK A01 T01110004  RH  048%=      5-min Rain = 0
KWA1 051422Z 28010KT 11/01 A3006 RMK A01 T01120006  RH  048%=      5-min Rain = 0
KWA1 051423Z 28010KT 11/01 A3006 RMK A01 T01130005  RH  047%=      5-min Rain = 0
KWA1 051424Z 28010KT 11/01 A3006 RMK A01 T01140005  RH  047%=      5-min Rain = 0
KWA1 051425Z 27009KT 12/01 A3006 RMK A01 T01150006  RH  047%=      5-min Rain = 0
KWA1 051426Z 27010KT 12/01 A3006 RMK A01 T01160005  RH  047%=      5-min Rain = 0
KWA1 051427Z 27009KT 12/01 A3006 RMK A01 T01160005  RH  046%=      5-min Rain = 0
KWA1 051428Z 28009KT 12/01 A3006 RMK A01 T01170009  RH  048%=      5-min Rain = 0
KWA1 051429Z 28009KT 12/01 A3006 RMK A01 T01180010  RH  047%=      5-min Rain = 0
KWA1 051430Z 27011KT 12/01 A3006 RMK A01 T01190006  RH  046%=      5-min Rain = 0
KWA1 051431Z 27011KT 12/00 A3006 RMK A01 T01190003  RH  045%=      5-min Rain = 0
KWA1 051432Z 27010KT 12/01 A3006 RMK A01 T01190005  RH  046%=      5-min Rain = 0
KWA1 051433Z 27010KT 12/01 A3006 RMK A01 T01200005  RH  045%=      5-min Rain = 0
KWA1 051434Z 27011KT 12/00 A3006 RMK A01 T01200004  RH  045%=      5-min Rain = 0
KWA1 051435Z 27011KT 12/00 A3006 RMK A01 T01210004  RH  045%=      5-min Rain = 0
KWA1 051436Z 28012KT 12/00 A3006 RMK A01 T01210004  RH  045%=      5-min Rain = 0
KWA1 051437Z 28011KT 12/00 A3006 RMK A01 T01210002  RH  044%=      5-min Rain = 0
KWA1 051438Z 28010KT 12/01 A3006 RMK A01 T01230005  RH  045%=      5-min Rain = 0
KWA1 051439Z 28011KT 12/00 A3006 RMK A01 T01230004  RH  044%=      5-min Rain = 0
KWA1 051440Z 28009KT 12/01 A3007 RMK A01 T01230005  RH  044%=      5-min Rain = 0
KWA1 051441Z 28011KT 12/01 A3007 RMK A01 T01240006  RH  044%=      5-min Rain = 0
KWA1 051442Z 28011KT 13/01 A3007 RMK A01 T01250005  RH  044%=      5-min Rain = 0
KWA1 051443Z 27010KT 13/01 A3007 RMK A01 T01250006  RH  044%=      5-min Rain = 0
KWA1 051444Z 27010KT 13/01 A3007 RMK A01 T01260005  RH  044%=      5-min Rain = 0
KWA1 051445Z 28012KT 13/01 A3007 RMK A01 T01270007  RH  044%=      5-min Rain = 0
KWA1 051446Z 29013KT 13/00 A3007 RMK A01 T01270002  RH  042%=      5-min Rain = 0
KWA1 051447Z 29014KT 13/00 A3007 RMK A01 T01280002  RH  042%=      5-min Rain = 0
KWA1 051448Z 29012KT 13/00 A3007 RMK A01 T01290003  RH  042%=      5-min Rain = 0
KWA1 051449Z 28014KT 13/00 A3007 RMK A01 T01310004  RH  042%=      5-min Rain = 0
KWA1 051450Z 29012KT 13/01 A3007 RMK A01 T01310005  RH  042%=      5-min Rain = 0
KWA1 051451Z 29012KT 13/01 A3006 RMK A01 T01330008  RH  042%=      5-min Rain = 0
KWA1 051452Z 29013KT 13/01 A3006 RMK A01 T01340007  RH  042%=      5-min Rain = 0
KWA1 051453Z 29011KT 13/01 A3006 RMK A01 T01340005  RH  041%=      5-min Rain = 0
KWA1 051454Z 30014KT 13/01 A3006 RMK A01 T01340008  RH  042%=      5-min Rain = 0
KWA1 051455Z 30013KT 13/00 A3006 RMK A01 T01340004  RH  041%=      5-min Rain = 0
KWA1 051456Z 29014KT 13/01 A3006 RMK A01 T01330005  RH  042%=      5-min Rain = 0
KWA1 051457Z 29013KT 13/01 A3006 RMK A01 T01330005  RH  042%=      5-min Rain = 0
KWA1 051458Z 29014KT 13/01 A3006 RMK A01 T01320007  RH  042%=      5-min Rain = 0
KWA1 051459Z 30014KT 13/01 A3006 RMK A01 T01320007  RH  042%=      5-min Rain = 0
KWA1 051500Z 30015KT 13/01 A3007 RMK A01 T01330009  RH  043%=      5-min Rain = 0
KWA1 051501Z 30016KT 13/01 A3007 RMK A01 T01320008  RH  042%=      5-min Rain = 0
KWA1 051502Z 30015KT 13/01 A3007 RMK A01 T01330008  RH  043%=      5-min Rain = 0
KWA1 051503Z 30016KT 13/01 A3007 RMK A01 T01330011  RH  043%=      5-min Rain = 0
KWA1 051504Z 30013KT 13/01 A3007 RMK A01 T01330010  RH  043%=      5-min Rain = 0
KWA1 051505Z 31015KT 13/01 A3007 RMK A01 T01340013  RH  044%=      5-min Rain = 0
KWA1 051506Z 30013KT 14/01 A3007 RMK A01 T01350014  RH  044%=      5-min Rain = 0
KWA1 051507Z 30014KT 14/02 A3007 RMK A01 T01360015  RH  044%=      5-min Rain = 0
KWA1 051508Z 30014KT 14/02 A3007 RMK A01 T01360015  RH  044%=      5-min Rain = 0
KWA1 051509Z 30015KT 14/01 A3007 RMK A01 T01360014  RH  043%=      5-min Rain = 0
KWA1 051510Z 31015KT 14/01 A3007 RMK A01 T01360013  RH  043%=      5-min Rain = 0
KWA1 051511Z 30013KT 14/02 A3007 RMK A01 T01360017  RH  044%=      5-min Rain = 0
KWA1 051512Z 29012KT 14/02 A3007 RMK A01 T01370016  RH  044%=      5-min Rain = 0
KWA1 051513Z 30012KT 14/02 A3007 RMK A01 T01380019  RH  044%=      5-min Rain = 0
KWA1 051514Z 30015KT 14/02 A3007 RMK A01 T01390016  RH  043%=      5-min Rain = 0
KWA1 051515Z 30014KT 14/01 A3007 RMK A01 T01380014  RH  043%=      5-min Rain = 0
KWA1 051516Z 30014KT 14/02 A3007 RMK A01 T01370016  RH  044%=      5-min Rain = 0
KWA1 051517Z 30011KT 14/01 A3007 RMK A01 T01380014  RH  043%=      5-min Rain = 0
KWA1 051518Z 29011KT 14/02 A3007 RMK A01 T01380019  RH  044%=      5-min Rain = 0
KWA1 051519Z 30012KT 14/02 A3007 RMK A01 T01400021  RH  044%=      5-min Rain = 0
KWA1 051520Z 30013KT 14/02 A3007 RMK A01 T01410018  RH  043%=      5-min Rain = 0
KWA1 051521Z 31012KT 14/02 A3007 RMK A01 T01410019  RH  043%=      5-min Rain = 0
KWA1 051522Z 29010KT 14/02 A3007 RMK A01 T01420023  RH  045%=      5-min Rain = 0
KWA1 051523Z 29012KT 14/02 A3007 RMK A01 T01440021  RH  043%=      5-min Rain = 0
KWA1 051524Z 30011KT 14/02 A3007 RMK A01 T01440023  RH  044%=      5-min Rain = 0
KWA1 051525Z 29011KT 15/02 A3007 RMK A01 T01450023  RH  043%=      5-min Rain = 0
KWA1 051526Z 28012KT 15/02 A3007 RMK A01 T01460023  RH  043%=      5-min Rain = 0
KWA1 051527Z 28014KT 15/02 A3007 RMK A01 T01470024  RH  043%=      5-min Rain = 0
KWA1 051528Z 29013KT 15/02 A3007 RMK A01 T01470023  RH  043%=      5-min Rain = 0
KWA1 051529Z 29013KT 15/03 A3007 RMK A01 T01480026  RH  044%=      5-min Rain = 0
KWA1 051530Z 29012KT 15/02 A3007 RMK A01 T01490024  RH  043%=      5-min Rain = 0
KWA1 051531Z 30013KT 15/02 A3007 RMK A01 T01490023  RH  042%=      5-min Rain = 0
KWA1 051532Z 31012KT 15/03 A3007 RMK A01 T01490025  RH  043%=      5-min Rain = 0
KWA1 051533Z 31017KT 15/03 A3007 RMK A01 T01510027  RH  043%=      5-min Rain = 0
KWA1 051534Z 31016KT 15/03 A3007 RMK A01 T01530027  RH  043%=      5-min Rain = 0
KWA1 051535Z 32016KT 15/03 A3007 RMK A01 T01530026  RH  043%=      5-min Rain = 0
KWA1 051536Z 31015G21KT 15/03 A3007 RMK A01 T01530027  RH  043%=      5-min Rain = 0
KWA1 051537Z 31018KT 15/03 A3007 RMK A01 T01540026  RH  042%=      5-min Rain = 0
KWA1 051538Z 32014KT 15/02 A3007 RMK A01 T01520024  RH  042%=      5-min Rain = 0
KWA1 051539Z 30014KT 15/03 A3007 RMK A01 T01530027  RH  043%=      5-min Rain = 0
KWA1 051540Z 30015KT 16/03 A3007 RMK A01 T01550027  RH  042%=      5-min Rain = 0
KWA1 051541Z 30016KT 16/02 A3007 RMK A01 T01550024  RH  041%=      5-min Rain = 0
KWA1 051542Z 29015KT 15/02 A3007 RMK A01 T01520023  RH  042%=      5-min Rain = 0
KWA1 051543Z 30014KT 15/03 A3007 RMK A01 T01530026  RH  042%=      5-min Rain = 0
KWA1 051544Z 30014KT 15/03 A3007 RMK A01 T01540028  RH  043%=      5-min Rain = 0
KWA1 051545Z 31018KT 16/03 A3008 RMK A01 T01550029  RH  043%=      5-min Rain = 0
KWA1 051546Z 32018KT 16/03 A3008 RMK A01 T01560030  RH  043%=      5-min Rain = 0
KWA1 051547Z 31018KT 16/03 A3008 RMK A01 T01560030  RH  043%=      5-min Rain = 0
KWA1 051548Z 31019KT 16/03 A3007 RMK A01 T01550028  RH  042%=      5-min Rain = 0
KWA1 051549Z 30020KT 16/03 A3007 RMK A01 T01550030  RH  043%=      5-min Rain = 0
KWA1 051550Z 30019KT 16/03 A3007 RMK A01 T01550030  RH  043%=      5-min Rain = 0
KWA1 051551Z 31021KT 15/03 A3007 RMK A01 T01540030  RH  043%=      5-min Rain = 0
KWA1 051552Z 31020G25KT 16/03 A3008 RMK A01 T01550030  RH  043%=      5-min Rain = 0
KWA1 051553Z 31018KT 16/03 A3008 RMK A01 T01560033  RH  044%=      5-min Rain = 0
KWA1 051554Z 32019KT 16/03 A3008 RMK A01 T01570031  RH  043%=      5-min Rain = 0
KWA1 051555Z 31021KT 16/03 A3008 RMK A01 T01560030  RH  043%=      5-min Rain = 0
KWA1 051556Z 31020KT 16/03 A3008 RMK A01 T01560032  RH  043%=      5-min Rain = 0
KWA1 051557Z 31018KT 16/03 A3008 RMK A01 T01570033  RH  043%=      5-min Rain = 0
KWA1 051558Z 31017KT 16/03 A3007 RMK A01 T01570033  RH  043%=      5-min Rain = 0
KWA1 051559Z 31017KT 16/03 A3007 RMK A01 T01570032  RH  043%=      5-min Rain = 0
KWA1 051600Z 30017KT 16/04 A3007 RMK A01 T01570035  RH  044%=      5-min Rain = 0
KWA1 051601Z 30017KT 16/04 A3007 RMK A01 T01600038  RH  044%=      5-min Rain = 0
KWA1 051602Z 31019KT 16/04 A3007 RMK A01 T01610035  RH  043%=      5-min Rain = 0
KWA1 051603Z 31020KT 16/04 A3007 RMK A01 T01600037  RH  044%=      5-min Rain = 0
KWA1 051604Z 31017KT 16/04 A3007 RMK A01 T01610037  RH  044%=      5-min Rain = 0
KWA1 051605Z 31019KT 16/04 A3007 RMK A01 T01630041  RH  044%=      5-min Rain = 0
KWA1 051606Z 31017KT 16/04 A3007 RMK A01 T01640037  RH  043%=      5-min Rain = 0
KWA1 051607Z 31021KT 16/04 A3007 RMK A01 T01620037  RH  043%=      5-min Rain = 0
KWA1 051608Z 32021KT 16/04 A3007 RMK A01 T01620037  RH  043%=      5-min Rain = 0
KWA1 051609Z 32020KT 16/04 A3007 RMK A01 T01610037  RH  043%=      5-min Rain = 0
KWA1 051610Z 32018KT 16/04 A3007 RMK A01 T01620038  RH  044%=      5-min Rain = 0
KWA1 051611Z 31017G22KT 16/04 A3007 RMK A01 T01640040  RH  044%=      5-min Rain = 0
KWA1 051612Z 32020KT 17/04 A3007 RMK A01 T01650039  RH  043%=      5-min Rain = 0
KWA1 051613Z 32018KT 16/04 A3007 RMK A01 T01640037  RH  043%=      5-min Rain = 0
KWA1 051614Z 32018KT 16/04 A3007 RMK A01 T01640041  RH  044%=      5-min Rain = 0
KWA1 051615Z 31018KT 17/04 A3007 RMK A01 T01680044  RH  044%=      5-min Rain = 0
KWA1 051616Z 31018KT 17/04 A3007 RMK A01 T01700042  RH  043%=      5-min Rain = 0
KWA1 051617Z 31018G24KT 17/04 A3007 RMK A01 T01670041  RH  043%=      5-min Rain = 0
KWA1 051618Z 31020KT 17/04 A3007 RMK A01 T01670041  RH  043%=      5-min Rain = 0
KWA1 051619Z 31017G22KT 17/04 A3007 RMK A01 T01670041  RH  043%=      5-min Rain = 0
KWA1 051620Z 31019KT 17/04 A3007 RMK A01 T01660041  RH  043%=      5-min Rain = 0
KWA1 051621Z 30019KT 17/04 A3007 RMK A01 T01670044  RH  044%=      5-min Rain = 0
KWA1 051622Z 31019KT 17/04 A3007 RMK A01 T01670042  RH  044%=      5-min Rain = 0
KWA1 051623Z 31018KT 17/05 A3007 RMK A01 T01670045  RH  044%=      5-min Rain = 0
KWA1 051624Z 32018KT 17/04 A3007 RMK A01 T01680043  RH  043%=      5-min Rain = 0
KWA1 051625Z 32018KT 17/04 A3007 RMK A01 T01680044  RH  044%=      5-min Rain = 0
KWA1 051626Z 32019KT 17/05 A3007 RMK A01 T01690045  RH  044%=      5-min Rain = 0
KWA1 051627Z 32021KT 17/04 A3007 RMK A01 T01690044  RH  043%=      5-min Rain = 0
KWA1 051628Z 32018KT 17/04 A3007 RMK A01 T01690044  RH  043%=      5-min Rain = 0
KWA1 051629Z 32018KT 17/04 A3007 RMK A01 T01700044  RH  043%=      5-min Rain = 0
KWA1 051630Z 31018KT 17/04 A3007 RMK A01 T01710044  RH  043%=      5-min Rain = 0
KWA1 051631Z 32020KT 17/04 A3007 RMK A01 T01710044  RH  043%=      5-min Rain = 0
KWA1 051632Z 31017KT 17/04 A3007 RMK A01 T01680042  RH  043%=      5-min Rain = 0
KWA1 051633Z 31017KT 17/04 A3007 RMK A01 T01670043  RH  044%=      5-min Rain = 0
KWA1 051634Z 32019KT 17/05 A3007 RMK A01 T01690045  RH  044%=      5-min Rain = 0
KWA1 051635Z 31021KT 17/04 A3007 RMK A01 T01710043  RH  043%=      5-min Rain = 0
KWA1 051636Z 32018KT 17/04 A3007 RMK A01 T01700042  RH  043%=      5-min Rain = 0
KWA1 051637Z 32018KT 17/04 A3007 RMK A01 T01690043  RH  043%=      5-min Rain = 0
KWA1 051638Z 32017KT 17/04 A3008 RMK A01 T01690043  RH  043%=      5-min Rain = 0
KWA1 051639Z 32016KT 17/04 A3007 RMK A01 T01660039  RH  043%=      5-min Rain = 0
KWA1 051640Z 33017KT 17/04 A3007 RMK A01 T01650040  RH  043%=      5-min Rain = 0
KWA1 051641Z 32016G21KT 17/04 A3007 RMK A01 T01670044  RH  044%=      5-min Rain = 0
KWA1 051642Z 31020KT 17/05 A3007 RMK A01 T01730047  RH  043%=      5-min Rain = 0
KWA1 051643Z 31018KT 17/04 A3007 RMK A01 T01730041  RH  042%=      5-min Rain = 0
KWA1 051644Z 31021KT 17/04 A3007 RMK A01 T01710043  RH  043%=      5-min Rain = 0
KWA1 051645Z 33019KT 17/04 A3007 RMK A01 T01730043  RH  042%=      5-min Rain = 0
KWA1 051646Z 33019KT 17/04 A3007 RMK A01 T01740041  RH  041%=      5-min Rain = 0
KWA1 051647Z 32019KT 17/04 A3007 RMK A01 T01710039  RH  042%=      5-min Rain = 0
KWA1 051648Z 32019KT 17/04 A3007 RMK A01 T01700040  RH  042%=      5-min Rain = 0
KWA1 051649Z 33018KT 17/04 A3008 RMK A01 T01720042  RH  042%=      5-min Rain = 0
KWA1 051650Z 34018KT 17/04 A3007 RMK A01 T01730042  RH  042%=      5-min Rain = 0
KWA1 051651Z 31019G24KT 18/04 A3007 RMK A01 T01750044  RH  042%=      5-min Rain = 0
KWA1 051652Z 33017KT 18/04 A3007 RMK A01 T01760041  RH  041%=      5-min Rain = 0
KWA1 051653Z 31019KT 18/04 A3007 RMK A01 T01750042  RH  041%=      5-min Rain = 0
KWA1 051654Z 32019KT 18/04 A3007 RMK A01 T01770042  RH  041%=      5-min Rain = 0
KWA1 051655Z 32018KT 18/04 A3007 RMK A01 T01770041  RH  041%=      5-min Rain = 0
KWA1 051656Z 32015KT 18/04 A3007 RMK A01 T01750039  RH  040%=      5-min Rain = 0
KWA1 051657Z 33022KT 18/04 A3007 RMK A01 T01760041  RH  041%=      5-min Rain = 0
KWA1 051658Z 33021KT 18/04 A3008 RMK A01 T01750037  RH  040%=      5-min Rain = 0
KWA1 051659Z 33018KT 17/04 A3007 RMK A01 T01740039  RH  041%=      5-min Rain = 0
KWA1 051700Z 33020G25KT 18/04 A3008 RMK A01 T01760040  RH  041%=      5-min Rain = 0
KWA1 051701Z 32018KT 18/04 A3008 RMK A01 T01760040  RH  040%=      5-min Rain = 0
KWA1 051702Z 32016KT 18/04 A3008 RMK A01 T01790043  RH  041%=      5-min Rain = 0
KWA1 051703Z 32017KT 18/04 A3007 RMK A01 T01820042  RH  040%=      5-min Rain = 0
KWA1 051704Z 33016KT 18/04 A3007 RMK A01 T01810043  RH  040%=      5-min Rain = 0
KWA1 051705Z 33015KT 18/04 A3007 RMK A01 T01810043  RH  040%=      5-min Rain = 0
KWA1 051706Z 33015G20KT 18/04 A3007 RMK A01 T01810042  RH  040%=      5-min Rain = 0
KWA1 051707Z 33017KT 18/04 A3007 RMK A01 T01820043  RH  040%=      5-min Rain = 0
KWA1 051708Z 32018G24KT 18/04 A3007 RMK A01 T01830043  RH  039%=      5-min Rain = 0
KWA1 051709Z 33023KT 18/04 A3007 RMK A01 T01820041  RH  039%=      5-min Rain = 0
KWA1 051710Z 32021KT 18/04 A3007 RMK A01 T01800040  RH  040%=      5-min Rain = 0
KWA1 051711Z 32020KT 18/04 A3007 RMK A01 T01790042  RH  040%=      5-min Rain = 0
KWA1 051712Z 32021KT 18/04 A3007 RMK A01 T01800041  RH  040%=      5-min Rain = 0
KWA1 051713Z 32022KT 18/04 A3007 RMK A01 T01790043  RH  041%=      5-min Rain = 0
KWA1 051714Z 32017KT 18/04 A3008 RMK A01 T01810043  RH  040%=      5-min Rain = 0
KWA1 051715Z 32020KT 18/05 A3008 RMK A01 T01830045  RH  040%=      5-min Rain = 0
KWA1 051716Z 31020G25KT 18/04 A3008 RMK A01 T01840044  RH  040%=      5-min Rain = 0
KWA1 051717Z 32019KT 18/04 A3008 RMK A01 T01830042  RH  039%=      5-min Rain = 0
KWA1 051718Z 32017KT 18/04 A3008 RMK A01 T01810043  RH  040%=      5-min Rain = 0
KWA1 051719Z 33021KT 18/04 A3008 RMK A01 T01810044  RH  040%=      5-min Rain = 0
KWA1 051720Z 34022KT 18/04 A3008 RMK A01 T01840044  RH  040%=      5-min Rain = 0
KWA1 051721Z 33022KT 18/05 A3008 RMK A01 T01830045  RH  040%=      5-min Rain = 0
KWA1 051722Z 34019KT 18/04 A3008 RMK A01 T01810043  RH  040%=      5-min Rain = 0
KWA1 051723Z 33021KT 18/04 A3008 RMK A01 T01810043  RH  040%=      5-min Rain = 0
KWA1 051724Z 32025KT 18/04 A3008 RMK A01 T01820043  RH  040%=      5-min Rain = 0
KWA1 051725Z 33022KT 18/04 A3008 RMK A01 T01820042  RH  040%=      5-min Rain = 0
KWA1 051726Z 32024KT 18/04 A3008 RMK A01 T01840044  RH  039%=      5-min Rain = 0
KWA1 051727Z 33025KT 19/04 A3008 RMK A01 T01850042  RH  039%=      5-min Rain = 0
KWA1 051728Z 33023KT 18/04 A3008 RMK A01 T01830042  RH  039%=      5-min Rain = 0
KWA1 051729Z 32021KT 18/04 A3008 RMK A01 T01830042  RH  039%=      5-min Rain = 0
KWA1 051730Z 32019KT 18/04 A3008 RMK A01 T01830042  RH  039%=      5-min Rain = 0
KWA1 051731Z 32018KT 18/04 A3008 RMK A01 T01820042  RH  039%=      5-min Rain = 0
KWA1 051732Z 31020G25KT 18/04 A3008 RMK A01 T01820043  RH  040%=      5-min Rain = 0
KWA1 051733Z 31017KT 18/04 A3008 RMK A01 T01820042  RH  040%=      5-min Rain = 0
KWA1 051734Z 31017KT 18/04 A3008 RMK A01 T01810042  RH  040%=      5-min Rain = 0
KWA1 051735Z 32019G27KT 18/05 A3008 RMK A01 T01820045  RH  040%=      5-min Rain = 0
KWA1 051736Z 33021KT 19/04 A3008 RMK A01 T01850043  RH  039%=      5-min Rain = 0
KWA1 051737Z 33020KT 18/04 A3008 RMK A01 T01840043  RH  039%=      5-min Rain = 0
KWA1 051738Z 31021KT 19/05 A3008 RMK A01 T01860045  RH  039%=      5-min Rain = 0
KWA1 051739Z 32020KT 19/04 A3008 RMK A01 T01860044  RH  039%=      5-min Rain = 0
KWA1 051740Z 32021KT 19/05 A3008 RMK A01 T01870045  RH  039%=      5-min Rain = 0
KWA1 051741Z 31020KT 19/04 A3008 RMK A01 T01880042  RH  038%=      5-min Rain = 0
KWA1 051742Z 32023KT 19/04 A3008 RMK A01 T01850042  RH  039%=      5-min Rain = 0
KWA1 051743Z 33022KT 19/04 A3008 RMK A01 T01850043  RH  039%=      5-min Rain = 0
KWA1 051744Z 33024KT 19/05 A3008 RMK A01 T01860045  RH  039%=      5-min Rain = 0
KWA1 051745Z 33024KT 19/05 A3008 RMK A01 T01870045  RH  039%=      5-min Rain = 0
KWA1 051746Z 33021KT 19/04 A3008 RMK A01 T01870043  RH  038%=      5-min Rain = 0
KWA1 051747Z 34019KT 19/04 A3008 RMK A01 T01860041  RH  038%=      5-min Rain = 0
KWA1 051748Z 33017KT 18/05 A3008 RMK A01 T01840045  RH  040%=      5-min Rain = 0
KWA1 051749Z 34020KT 19/05 A3008 RMK A01 T01860045  RH  039%=      5-min Rain = 0
KWA1 051750Z 33019KT 19/05 A3008 RMK A01 T01860045  RH  039%=      5-min Rain = 0
KWA1 051751Z 31016KT 19/05 A3008 RMK A01 T01870046  RH  039%=      5-min Rain = 0
KWA1 051752Z 33020G28KT 19/05 A3008 RMK A01 T01890045  RH  039%=      5-min Rain = 0
KWA1 051753Z 33023KT 19/05 A3008 RMK A01 T01910045  RH  038%=      5-min Rain = 0
KWA1 051754Z 34021KT 19/04 A3008 RMK A01 T01900044  RH  038%=      5-min Rain = 0
KWA1 051755Z 35018KT 19/05 A3008 RMK A01 T01890045  RH  039%=      5-min Rain = 0
KWA1 051756Z 34017KT 19/04 A3008 RMK A01 T01880044  RH  038%=      5-min Rain = 0
KWA1 051757Z 33013KT 19/04 A3008 RMK A01 T01870044  RH  039%=      5-min Rain = 0
KWA1 051758Z 32018G25KT 19/05 A3008 RMK A01 T01870047  RH  040%=      5-min Rain = 0
KWA1 051759Z 31019G24KT 19/04 A3008 RMK A01 T01910043  RH  038%=      5-min Rain = 0
KWA1 051800Z 32016KT 19/05 A3008 RMK A01 T01890045  RH  038%=      5-min Rain = 0
KWA1 051801Z 33019KT 19/05 A3008 RMK A01 T01900045  RH  038%=      5-min Rain = 0
KWA1 051802Z 33017KT 19/04 A3007 RMK A01 T01900044  RH  038%=      5-min Rain = 0
KWA1 051803Z 32023KT 19/04 A3007 RMK A01 T01890044  RH  038%=      5-min Rain = 0
KWA1 051804Z 33024KT 19/05 A3007 RMK A01 T01940046  RH  038%=      5-min Rain = 0
KWA1 051805Z 34024KT 20/05 A3008 RMK A01 T01950045  RH  037%=      5-min Rain = 0
KWA1 051806Z 34020KT 19/05 A3008 RMK A01 T01930045  RH  038%=      5-min Rain = 0
KWA1 051807Z 33019KT 19/04 A3007 RMK A01 T01920044  RH  038%=      5-min Rain = 0
KWA1 051808Z 31016KT 19/04 A3007 RMK A01 T01900043  RH  038%=      5-min Rain = 0
KWA1 051809Z 31019G24KT 19/05 A3007 RMK A01 T01910045  RH  038%=      5-min Rain = 0
KWA1 051810Z 32023KT 20/05 A3007 RMK A01 T01950045  RH  037%=      5-min Rain = 0
KWA1 051811Z 33021KT 19/04 A3007 RMK A01 T01930044  RH  037%=      5-min Rain = 0
KWA1 051812Z 33018KT 19/05 A3007 RMK A01 T01930046  RH  038%=      5-min Rain = 0
KWA1 051813Z 34017KT 20/05 A3008 RMK A01 T01950047  RH  038%=      5-min Rain = 0
KWA1 051814Z 32018KT 20/05 A3007 RMK A01 T01960049  RH  038%=      5-min Rain = 0
KWA1 051815Z 33016KT 20/05 A3007 RMK A01 T01970047  RH  037%=      5-min Rain = 0
KWA1 051816Z 34015KT 20/05 A3007 RMK A01 T01960047  RH  037%=      5-min Rain = 0
KWA1 051817Z 33016KT 20/05 A3007 RMK A01 T01950050  RH  038%=      5-min Rain = 0
KWA1 051818Z 34021G26KT 20/05 A3008 RMK A01 T01980049  RH  037%=      5-min Rain = 0
KWA1 051819Z 34024KT 20/05 A3007 RMK A01 T01990048  RH  037%=      5-min Rain = 0
KWA1 051820Z 34022KT 20/04 A3008 RMK A01 T02000044  RH  036%=      5-min Rain = 0
KWA1 051821Z 33019G24KT 20/05 A3008 RMK A01 T02000045  RH  036%=      5-min Rain = 0
KWA1 051822Z 33017KT 20/05 A3007 RMK A01 T01990045  RH  036%=      5-min Rain = 0
KWA1 051823Z 33019KT 20/04 A3007 RMK A01 T01980044  RH  036%=      5-min Rain = 0
KWA1 051824Z 33022KT 20/05 A3007 RMK A01 T01980048  RH  037%=      5-min Rain = 0
KWA1 051825Z 33022KT 20/05 A3007 RMK A01 T02000046  RH  036%=      5-min Rain = 0
KWA1 051826Z 34021KT 20/05 A3007 RMK A01 T01990045  RH  036%=      5-min Rain = 0
KWA1 051827Z 34019G24KT 20/05 A3007 RMK A01 T01980047  RH  037%=      5-min Rain = 0
KWA1 051828Z 33023G29KT 20/05 A3007 RMK A01 T02000046  RH  036%=      5-min Rain = 0
KWA1 051829Z 33025KT 20/05 A3007 RMK A01 T02000045  RH  036%=      5-min Rain = 0
KWA1 051830Z 34025KT 20/04 A3007 RMK A01 T02000044  RH  036%=      5-min Rain = 0
KWA1 051831Z 34020KT 20/04 A3007 RMK A01 T01980042  RH  036%=      5-min Rain = 0
KWA1 051832Z 35019KT 20/05 A3007 RMK A01 T01970045  RH  037%=      5-min Rain = 0
KWA1 051833Z 36021KT 20/05 A3008 RMK A01 T02010045  RH  036%=      5-min Rain = 0
KWA1 051834Z 36020G26KT 20/04 A3007 RMK A01 T02030044  RH  035%=      5-min Rain = 0
KWA1 051835Z 35023G28KT 20/04 A3007 RMK A01 T02030044  RH  035%=      5-min Rain = 0
KWA1 051836Z 34023KT 20/05 A3007 RMK A01 T02030046  RH  036%=      5-min Rain = 0
KWA1 051837Z 34020KT 20/04 A3007 RMK A01 T02030044  RH  035%=      5-min Rain = 0
KWA1 051838Z 33020KT 20/04 A3007 RMK A01 T02010044  RH  036%=      5-min Rain = 0
KWA1 051839Z 34018KT 20/04 A3007 RMK A01 T02000043  RH  035%=      5-min Rain = 0
KWA1 051840Z 35019KT 20/04 A3007 RMK A01 T01990041  RH  035%=      5-min Rain = 0
KWA1 051841Z 34018KT 20/04 A3007 RMK A01 T01990043  RH  036%=      5-min Rain = 0
KWA1 051842Z 33018KT 20/05 A3007 RMK A01 T01990047  RH  037%=      5-min Rain = 0
KWA1 051843Z 33019KT 20/05 A3007 RMK A01 T02020047  RH  036%=      5-min Rain = 0
KWA1 051844Z 32017KT 20/05 A3007 RMK A01 T02030049  RH  036%=      5-min Rain = 0
KWA1 051845Z 32022KT 21/05 A3007 RMK A01 T02050046  RH  035%=      5-min Rain = 0
KWA1 051846Z 32020KT 20/05 A3007 RMK A01 T02030045  RH  035%=      5-min Rain = 0
KWA1 051847Z 33016KT 20/05 A3007 RMK A01 T02030045  RH  035%=      5-min Rain = 0
KWA1 051848Z 36021KT 20/05 A3008 RMK A01 T02040047  RH  035%=      5-min Rain = 0
KWA1 051849Z 00017KT 21/04 A3008 RMK A01 T02060042  RH  034%=      5-min Rain = 0
KWA1 051850Z 01014KT 20/04 A3007 RMK A01 T02040043  RH  035%=      5-min Rain = 0
KWA1 051851Z 35017KT 21/05 A3007 RMK A01 T02070045  RH  035%=      5-min Rain = 0
KWA1 051852Z 35016KT 21/05 A3007 RMK A01 T02080047  RH  035%=      5-min Rain = 0
KWA1 051853Z 35017KT 21/05 A3007 RMK A01 T02090047  RH  035%=      5-min Rain = 0
KWA1 051854Z 35021G26KT 21/05 A3007 RMK A01 T02100046  RH  034%=      5-min Rain = 0
KWA1 051855Z 33020KT 21/04 A3007 RMK A01 T02070044  RH  034%=      5-min Rain = 0
KWA1 051856Z 33020G25KT 21/05 A3007 RMK A01 T02060046  RH  035%=      5-min Rain = 0
KWA1 051857Z 33023KT 21/05 A3007 RMK A01 T02090046  RH  034%=      5-min Rain = 0
KWA1 051858Z 33020KT 21/05 A3007 RMK A01 T02090047  RH  035%=      5-min Rain = 0
KWA1 051859Z 34020KT 21/05 A3007 RMK A01 T02100047  RH  034%=      5-min Rain = 0
KWA1 051900Z 35022KT 21/05 A3007 RMK A01 T02130048  RH  034%=      5-min Rain = 0
KWA1 051901Z 33022KT 21/05 A3007 RMK A01 T02130046  RH  034%=      5-min Rain = 0
KWA1 051902Z 33020KT 21/05 A3007 RMK A01 T02090045  RH  034%=      5-min Rain = 0
KWA1 051903Z 34022G28KT 21/05 A3007 RMK A01 T02060049  RH  036%=      5-min Rain = 0
KWA1 051904Z 34022G27KT 21/05 A3007 RMK A01 T02100050  RH  035%=      5-min Rain = 0
KWA1 051905Z 33020KT 21/05 A3007 RMK A01 T02100049  RH  035%=      5-min Rain = 0
KWA1 051906Z 33020KT 21/05 A3007 RMK A01 T02100050  RH  035%=      5-min Rain = 0
KWA1 051907Z 34019G25KT 21/05 A3007 RMK A01 T02110050  RH  035%=      5-min Rain = 0
KWA1 051908Z 34023KT 21/05 A3007 RMK A01 T02120051  RH  035%=      5-min Rain = 0
KWA1 051909Z 34017KT 21/05 A3007 RMK A01 T02090049  RH  035%=      5-min Rain = 0
KWA1 051910Z 35017KT 21/05 A3007 RMK A01 T02090049  RH  035%=      5-min Rain = 0
KWA1 051911Z 34019KT 21/05 A3007 RMK A01 T02110052  RH  035%=      5-min Rain = 0
KWA1 051912Z 34017KT 21/05 A3007 RMK A01 T02130053  RH  035%=      5-min Rain = 0
KWA1 051913Z 34021KT 21/05 A3006 RMK A01 T02140054  RH  035%=      5-min Rain = 0
KWA1 051914Z 34022G27KT 21/05 A3007 RMK A01 T02110050  RH  035%=      5-min Rain = 0
KWA1 051915Z 34019G24KT 21/05 A3007 RMK A01 T02090051  RH  036%=      5-min Rain = 0
KWA1 051916Z 34025KT 21/05 A3006 RMK A01 T02100048  RH  035%=      5-min Rain = 0
KWA1 051917Z 36023KT 21/05 A3007 RMK A01 T02110048  RH  034%=      5-min Rain = 0
KWA1 051918Z 00021KT 21/05 A3007 RMK A01 T02120045  RH  034%=      5-min Rain = 0
KWA1 051919Z 35021KT 21/05 A3007 RMK A01 T02110047  RH  034%=      5-min Rain = 0
KWA1 051920Z 34022G27KT 21/05 A3007 RMK A01 T02100052  RH  036%=      5-min Rain = 0
KWA1 051921Z 36019G24KT 21/05 A3007 RMK A01 T02100052  RH  036%=      5-min Rain = 0
KWA1 051922Z 00020KT 21/05 A3007 RMK A01 T02110052  RH  035%=      5-min Rain = 0
KWA1 051923Z 00021G27KT 21/05 A3007 RMK A01 T02120051  RH  035%=      5-min Rain = 0
KWA1 051924Z 01026KT 21/05 A3007 RMK A01 T02110048  RH  034%=      5-min Rain = 0
KWA1 051925Z 35024KT 21/05 A3007 RMK A01 T02110046  RH  034%=      5-min Rain = 0
KWA1 051926Z 36024G31KT 21/05 A3007 RMK A01 T02120049  RH  034%=      5-min Rain = 0
KWA1 051927Z 35019G24KT 21/05 A3007 RMK A01 T02120049  RH  034%=      5-min Rain = 0
KWA1 051928Z 36025KT 21/05 A3007 RMK A01 T02140052  RH  035%=      5-min Rain = 0
KWA1 051929Z 00023G28KT 22/05 A3007 RMK A01 T02150052  RH  034%=      5-min Rain = 0
KWA1 051930Z 34022KT 22/05 A3007 RMK A01 T02160052  RH  034%=      5-min Rain = 0
KWA1 051931Z 35017KT 21/05 A3007 RMK A01 T02120051  RH  035%=      5-min Rain = 0
KWA1 051932Z 35018G24KT 21/05 A3007 RMK A01 T02090052  RH  036%=      5-min Rain = 0
KWA1 051933Z 35023KT 21/05 A3006 RMK A01 T02120054  RH  036%=      5-min Rain = 0
KWA1 051934Z 35025KT 21/05 A3007 RMK A01 T02140049  RH  034%=      5-min Rain = 0
KWA1 051935Z 35022G29KT 21/05 A3007 RMK A01 T02090046  RH  034%=      5-min Rain = 0
KWA1 051936Z 36022KT 21/05 A3007 RMK A01 T02070051  RH  036%=      5-min Rain = 0
KWA1 051937Z 36017KT 21/05 A3007 RMK A01 T02080050  RH  036%=      5-min Rain = 0
KWA1 051938Z 36018G26KT 21/05 A3007 RMK A01 T02060051  RH  036%=      5-min Rain = 0
KWA1 051939Z 00021G27KT 21/05 A3007 RMK A01 T02070052  RH  036%=      5-min Rain = 0
KWA1 051940Z 36021G27KT 21/05 A3007 RMK A01 T02120052  RH  035%=      5-min Rain = 0
KWA1 051941Z 35022KT 21/05 A3006 RMK A01 T02120053  RH  035%=      5-min Rain = 0
KWA1 051942Z 34020KT 21/05 A3006 RMK A01 T02120053  RH  036%=      5-min Rain = 0
KWA1 051943Z 34021G26KT 21/06 A3006 RMK A01 T02110055  RH  036%=      5-min Rain = 0
KWA1 051944Z 36027KT 21/05 A3007 RMK A01 T02110052  RH  035%=      5-min Rain = 0
KWA1 051945Z 00025KT 21/05 A3007 RMK A01 T02120050  RH  035%=      5-min Rain = 0
KWA1 051946Z 00023KT 21/05 A3007 RMK A01 T02090047  RH  035%=      5-min Rain = 0
KWA1 051947Z 00020KT 21/05 A3007 RMK A01 T02060046  RH  035%=      5-min Rain = 0
KWA1 051948Z 00025KT 21/05 A3007 RMK A01 T02070049  RH  036%=      5-min Rain = 0
KWA1 051949Z 01020G25KT 21/05 A3007 RMK A01 T02070050  RH  036%=      5-min Rain = 0
KWA1 051950Z 35018KT 21/05 A3006 RMK A01 T02080054  RH  036%=      5-min Rain = 0
KWA1 051951Z 00020G25KT 21/06 A3007 RMK A01 T02110055  RH  036%=      5-min Rain = 0
KWA1 051952Z 01024KT 21/05 A3007 RMK A01 T02130052  RH  035%=      5-min Rain = 0
KWA1 051953Z 00022G27KT 21/05 A3007 RMK A01 T02120050  RH  035%=      5-min Rain = 0
KWA1 051954Z 36022KT 21/05 A3006 RMK A01 T02120053  RH  035%=      5-min Rain = 0
KWA1 051955Z 01024KT 21/05 A3007 RMK A01 T02110050  RH  035%=      5-min Rain = 0
KWA1 051956Z 35022KT 21/05 A3007 RMK A01 T02080048  RH  035%=      5-min Rain = 0
KWA1 051957Z 35017G22KT 21/05 A3007 RMK A01 T02070053  RH  037%=      5-min Rain = 0
KWA1 051958Z 34023KT 21/05 A3006 RMK A01 T02090052  RH  036%=      5-min Rain = 0
KWA1 051959Z 35022KT 21/05 A3006 RMK A01 T02080053  RH  036%=      5-min Rain = 0
KWA1 052000Z 36021G26KT 21/05 A3007 RMK A01 T02090050  RH  035%=      5-min Rain = 0
KWA1 052001Z 36020KT 21/05 A3007 RMK A01 T02060048  RH  036%=      5-min Rain = 0
KWA1 052002Z 35021G26KT 21/05 A3007 RMK A01 T02060049  RH  036%=      5-min Rain = 0
KWA1 052003Z 36023KT 21/05 A3007 RMK A01 T02080051  RH  036%=      5-min Rain = 0
KWA1 052004Z 00021KT 21/05 A3007 RMK A01 T02070051  RH  036%=      5-min Rain = 0
KWA1 052005Z 00021KT 21/05 A3007 RMK A01 T02070050  RH  036%=      5-min Rain = 0
KWA1 052006Z 36019KT 21/05 A3007 RMK A01 T02050052  RH  037%=      5-min Rain = 0
KWA1 052007Z 36018G27KT 21/06 A3006 RMK A01 T02050055  RH  037%=      5-min Rain = 0
KWA1 052008Z 00024KT 21/06 A3007 RMK A01 T02090055  RH  037%=      5-min Rain = 0
KWA1 052009Z 36022KT 21/05 A3007 RMK A01 T02100053  RH  036%=      5-min Rain = 0
KWA1 052010Z 00019KT 21/05 A3007 RMK A01 T02080053  RH  036%=      5-min Rain = 0
KWA1 052011Z 00021KT 21/05 A3007 RMK A01 T02070053  RH  036%=      5-min Rain = 0
KWA1 052012Z 35021G26KT 21/05 A3006 RMK A01 T02090053  RH  036%=      5-min Rain = 0
KWA1 052013Z 35024KT 21/05 A3006 RMK A01 T02090050  RH  035%=      5-min Rain = 0
KWA1 052014Z 35021KT 21/05 A3006 RMK A01 T02070049  RH  035%=      5-min Rain = 0
KWA1 052015Z 35021KT 21/05 A3006 RMK A01 T02080050  RH  035%=      5-min Rain = 0
KWA1 052016Z 34018KT 21/05 A3006 RMK A01 T02070051  RH  036%=      5-min Rain = 0
KWA1 052017Z 34017KT 21/05 A3006 RMK A01 T02050051  RH  036%=      5-min Rain = 0
KWA1 052018Z 34019KT 21/05 A3006 RMK A01 T02060054  RH  037%=      5-min Rain = 0
KWA1 052019Z 35019KT 21/05 A3006 RMK A01 T02080052  RH  036%=      5-min Rain = 0
KWA1 052020Z 33017KT 21/05 A3006 RMK A01 T02050050  RH  036%=      5-min Rain = 0
KWA1 052021Z 34020KT 21/05 A3006 RMK A01 T02060051  RH  036%=      5-min Rain = 0
KWA1 052022Z 35018KT 21/05 A3006 RMK A01 T02070052  RH  036%=      5-min Rain = 0
KWA1 052023Z 35018KT 21/05 A3006 RMK A01 T02070052  RH  036%=      5-min Rain = 0
KWA1 052024Z 35017KT 21/05 A3006 RMK A01 T02050053  RH  037%=      5-min Rain = 0
KWA1 052025Z 36018G23KT 21/05 A3006 RMK A01 T02050052  RH  037%=      5-min Rain = 0
KWA1 052026Z 00018KT 21/05 A3007 RMK A01 T02050047  RH  035%=      5-min Rain = 0
KWA1 052027Z 35019G26KT 21/05 A3006 RMK A01 T02100054  RH  036%=      5-min Rain = 0
KWA1 052028Z 35021G26KT 21/05 A3006 RMK A01 T02130053  RH  035%=      5-min Rain = 0
KWA1 052029Z 01022KT 21/05 A3007 RMK A01 T02090049  RH  035%=      5-min Rain = 0
KWA1 052030Z 01022KT 21/05 A3007 RMK A01 T02080048  RH  035%=      5-min Rain = 0
KWA1 052031Z 01017KT 21/05 A3007 RMK A01 T02050047  RH  035%=      5-min Rain = 0
KWA1 052032Z 01016KT 21/05 A3007 RMK A01 T02060047  RH  035%=      5-min Rain = 0
KWA1 052033Z 01014KT 21/05 A3006 RMK A01 T02070048  RH  035%=      5-min Rain = 0
KWA1 052034Z 36011KT 21/05 A3006 RMK A01 T02080049  RH  035%=      5-min Rain = 0
KWA1 052035Z 35017G22KT 21/05 A3006 RMK A01 T02060050  RH  036%=      5-min Rain = 0
KWA1 052036Z 34020KT 21/05 A3006 RMK A01 T02060049  RH  036%=      5-min Rain = 0
KWA1 052037Z 35020KT 21/05 A3006 RMK A01 T02080051  RH  036%=      5-min Rain = 0
KWA1 052038Z 35020KT 21/05 A3006 RMK A01 T02090051  RH  036%=      5-min Rain = 0
KWA1 052039Z 35017KT 21/06 A3006 RMK A01 T02080055  RH  037%=      5-min Rain = 0
KWA1 052040Z 36014KT 21/06 A3007 RMK A01 T02100055  RH  036%=      5-min Rain = 0
KWA1 052041Z 35016G22KT 21/05 A3007 RMK A01 T02120054  RH  036%=      5-min Rain = 0
KWA1 052042Z 35019G25KT 21/06 A3007 RMK A01 T02120058  RH  037%=      5-min Rain = 0
KWA1 052043Z 35018KT 21/05 A3007 RMK A01 T02120053  RH  035%=      5-min Rain = 0
KWA1 052044Z 35016G21KT 21/05 A3007 RMK A01 T02090053  RH  036%=      5-min Rain = 0
KWA1 052045Z 35020KT 21/05 A3007 RMK A01 T02120052  RH  035%=      5-min Rain = 0
KWA1 052046Z 35018KT 21/05 A3007 RMK A01 T02100049  RH  035%=      5-min Rain = 0
KWA1 052047Z 34018KT 21/05 A3007 RMK A01 T02080050  RH  035%=      5-min Rain = 0
KWA1 052048Z 35018KT 21/05 A3007 RMK A01 T02080049  RH  035%=      5-min Rain = 0
KWA1 052049Z 35018KT 21/05 A3007 RMK A01 T02070052  RH  036%=      5-min Rain = 0
KWA1 052050Z 01018KT 21/05 A3007 RMK A01 T02080053  RH  036%=      5-min Rain = 0
KWA1 052051Z 00018KT 21/05 A3007 RMK A01 T02100050  RH  035%=      5-min Rain = 0
KWA1 052052Z 00022KT 21/05 A3007 RMK A01 T02130049  RH  034%=      5-min Rain = 0
KWA1 052053Z 01018KT 21/05 A3007 RMK A01 T02120047  RH  034%=      5-min Rain = 0
KWA1 052054Z 36020G25KT 21/05 A3007 RMK A01 T02110049  RH  035%=      5-min Rain = 0
KWA1 052055Z 36019KT 21/05 A3007 RMK A01 T02120052  RH  035%=      5-min Rain = 0
KWA1 052056Z 34021KT 21/05 A3007 RMK A01 T02130053  RH  035%=      5-min Rain = 0
KWA1 052057Z 34016KT 21/05 A3007 RMK A01 T02100053  RH  036%=      5-min Rain = 0
KWA1 052058Z 34015KT 21/05 A3007 RMK A01 T02080052  RH  036%=      5-min Rain = 0
KWA1 052059Z 35016KT 21/05 A3007 RMK A01 T02070053  RH  037%=      5-min Rain = 0
KWA1 052100Z 00012KT 21/06 A3007 RMK A01 T02090055  RH  037%=      5-min Rain = 0
KWA1 052101Z 01015G20KT 21/06 A3007 RMK A01 T02110055  RH  036%=      5-min Rain = 0
KWA1 052102Z 01017G24KT 21/05 A3007 RMK A01 T02130052  RH  035%=      5-min Rain = 0
KWA1 052103Z 34021KT 21/06 A3007 RMK A01 T02140055  RH  035%=      5-min Rain = 0
KWA1 052104Z 34019KT 22/05 A3007 RMK A01 T02160052  RH  034%=      5-min Rain = 0
KWA1 052105Z 33019KT 21/05 A3007 RMK A01 T02130051  RH  035%=      5-min Rain = 0
KWA1 052106Z 33019KT 21/05 A3007 RMK A01 T02140053  RH  035%=      5-min Rain = 0
KWA1 052107Z 33020KT 21/05 A3007 RMK A01 T02120052  RH  035%=      5-min Rain = 0
KWA1 052108Z 34015KT 21/05 A3007 RMK A01 T02080052  RH  036%=      5-min Rain = 0
KWA1 052109Z 35018G24KT 21/06 A3008 RMK A01 T02100057  RH  037%=      5-min Rain = 0
KWA1 052110Z 00020KT 21/05 A3008 RMK A01 T02130054  RH  035%=      5-min Rain = 0
KWA1 052111Z 00018G23KT 21/05 A3008 RMK A01 T02110050  RH  035%=      5-min Rain = 0
KWA1 052112Z 01018KT 21/05 A3008 RMK A01 T02080051  RH  036%=      5-min Rain = 0
KWA1 052113Z 02021KT 21/05 A3008 RMK A01 T02080049  RH  035%=      5-min Rain = 0
KWA1 052114Z 02020KT 21/05 A3008 RMK A01 T02080049  RH  035%=      5-min Rain = 0
KWA1 052115Z 01022KT 21/05 A3008 RMK A01 T02060048  RH  035%=      5-min Rain = 0
KWA1 052116Z 00021KT 21/05 A3008 RMK A01 T02050047  RH  035%=      5-min Rain = 0
KWA1 052117Z 35021KT 20/05 A3008 RMK A01 T02040047  RH  036%=      5-min Rain = 0
KWA1 052118Z 00016G21KT 20/05 A3008 RMK A01 T02030049  RH  036%=      5-min Rain = 0
KWA1 052119Z 00017G22KT 21/05 A3008 RMK A01 T02080052  RH  036%=      5-min Rain = 0
KWA1 052120Z 00019KT 21/05 A3008 RMK A01 T02100048  RH  035%=      5-min Rain = 0
KWA1 052121Z 00016KT 21/05 A3008 RMK A01 T02050045  RH  035%=      5-min Rain = 0
KWA1 052122Z 00019KT 21/05 A3008 RMK A01 T02050048  RH  036%=      5-min Rain = 0
KWA1 052123Z 00017G23KT 21/05 A3008 RMK A01 T02070051  RH  036%=      5-min Rain = 0
KWA1 052124Z 34019G26KT 21/06 A3008 RMK A01 T02120057  RH  036%=      5-min Rain = 0
KWA1 052125Z 00020KT 21/06 A3008 RMK A01 T02130055  RH  036%=      5-min Rain = 0
KWA1 052126Z 01021G27KT 21/05 A3009 RMK A01 T02100053  RH  036%=      5-min Rain = 0
KWA1 052127Z 00023KT 21/05 A3009 RMK A01 T02120053  RH  035%=      5-min Rain = 0
KWA1 052128Z 00019KT 21/05 A3009 RMK A01 T02120054  RH  036%=      5-min Rain = 0
KWA1 052129Z 01021KT 21/05 A3009 RMK A01 T02100051  RH  035%=      5-min Rain = 0
KWA1 052130Z 36022KT 21/05 A3009 RMK A01 T02100053  RH  036%=      5-min Rain = 0
KWA1 052131Z 36023KT 21/05 A3009 RMK A01 T02060050  RH  036%=      5-min Rain = 0
KWA1 052132Z 35020KT 20/05 A3009 RMK A01 T02010050  RH  037%=      5-min Rain = 0
KWA1 052133Z 36021KT 20/05 A3009 RMK A01 T01990051  RH  038%=      5-min Rain = 0
KWA1 052134Z 01021KT 20/05 A3009 RMK A01 T01960048  RH  038%=      5-min Rain = 0
KWA1 052135Z 01020KT 20/05 A3009 RMK A01 T01980049  RH  038%=      5-min Rain = 0
KWA1 052136Z 35016KT 20/05 A3009 RMK A01 T02010053  RH  038%=      5-min Rain = 0
KWA1 052137Z 36022KT 20/05 A3009 RMK A01 T02040054  RH  037%=      5-min Rain = 0
KWA1 052138Z 00020G25KT 20/05 A3009 RMK A01 T02020049  RH  037%=      5-min Rain = 0
KWA1 052139Z 00022G27KT 20/05 A301 RMK A01 T01980047  RH  037%=      5-min Rain = 0
KWA1 052140Z 01020KT 20/05 A301 RMK A01 T01980045  RH  037%=      5-min Rain = 0
KWA1 052141Z 01019KT 20/04 A3009 RMK A01 T01960043  RH  036%=      5-min Rain = 0
KWA1 052142Z 01019KT 20/04 A301 RMK A01 T01960042  RH  036%=      5-min Rain = 0
KWA1 052143Z 01019KT 20/04 A301 RMK A01 T01950043  RH  037%=      5-min Rain = 0
KWA1 052144Z 00020KT 20/05 A301 RMK A01 T01950045  RH  037%=      5-min Rain = 0
KWA1 052145Z 01018KT 20/05 A301 RMK A01 T01950045  RH  037%=      5-min Rain = 0
KWA1 052146Z 36021G26KT 19/05 A3009 RMK A01 T01940047  RH  038%=      5-min Rain = 0
KWA1 052147Z 36024KT 20/05 A301 RMK A01 T01950047  RH  038%=      5-min Rain = 0
KWA1 052148Z 00021KT 19/05 A301 RMK A01 T01940049  RH  038%=      5-min Rain = 0
KWA1 052149Z 00019KT 19/05 A301 RMK A01 T01940048  RH  038%=      5-min Rain = 0
KWA1 052150Z 00018KT 19/05 A301 RMK A01 T01940048  RH  038%=      5-min Rain = 0
KWA1 052151Z 01020KT 19/05 A301 RMK A01 T01930047  RH  038%=      5-min Rain = 0
KWA1 052152Z 01020G25KT 19/05 A301 RMK A01 T01930048  RH  038%=      5-min Rain = 0
KWA1 052153Z 00025KT 19/05 A301 RMK A01 T01930050  RH  039%=      5-min Rain = 0
KWA1 052154Z 00022KT 19/05 A301 RMK A01 T01940050  RH  039%=      5-min Rain = 0
KWA1 052155Z 00023G28KT 20/05 A301 RMK A01 T01950051  RH  039%=      5-min Rain = 0
KWA1 052156Z 00021KT 20/05 A301 RMK A01 T01960051  RH  039%=      5-min Rain = 0
KWA1 052157Z 00024KT 20/05 A301 RMK A01 T01960051  RH  039%=      5-min Rain = 0
KWA1 052158Z 00022KT 20/05 A301 RMK A01 T01950049  RH  038%=      5-min Rain = 0
KWA1 052159Z 00020KT 19/05 A301 RMK A01 T01940048  RH  038%=      5-min Rain = 0
KWA1 052200Z 01024KT 19/05 A301 RMK A01 T01920048  RH  039%=      5-min Rain = 0
KWA1 052201Z 01024KT 19/05 A301 RMK A01 T01910047  RH  039%=      5-min Rain = 0
KWA1 052202Z 01020KT 19/05 A301 RMK A01 T01900046  RH  039%=      5-min Rain = 0
KWA1 052203Z 01018G23KT 19/05 A301 RMK A01 T01900047  RH  039%=      5-min Rain = 0
KWA1 052204Z 01020KT 19/05 A301 RMK A01 T01920048  RH  039%=      5-min Rain = 0
KWA1 052205Z 02019KT 20/05 A301 RMK A01 T01950050  RH  039%=      5-min Rain = 0
KWA1 052206Z 01022KT 20/05 A301 RMK A01 T01980052  RH  038%=      5-min Rain = 0
KWA1 052207Z 02022KT 20/05 A301 RMK A01 T01980051  RH  038%=      5-min Rain = 0
KWA1 052208Z 01021KT 20/05 A3011 RMK A01 T01970050  RH  038%=      5-min Rain = 0
KWA1 052209Z 00022KT 20/05 A3011 RMK A01 T01980051  RH  038%=      5-min Rain = 0
KWA1 052210Z 36022KT 20/05 A3011 RMK A01 T01980052  RH  038%=      5-min Rain = 0
KWA1 052211Z 36020KT 20/05 A3011 RMK A01 T01970053  RH  039%=      5-min Rain = 0
KWA1 052212Z 35023KT 20/05 A3011 RMK A01 T01990053  RH  038%=      5-min Rain = 0
KWA1 052213Z 35023KT 20/05 A301 RMK A01 T01980052  RH  038%=      5-min Rain = 0
KWA1 052214Z 01023G28KT 19/05 A3011 RMK A01 T01940048  RH  038%=      5-min Rain = 0
KWA1 052215Z 01021KT 19/05 A3011 RMK A01 T01930047  RH  038%=      5-min Rain = 0
KWA1 052216Z 00021KT 19/05 A3011 RMK A01 T01940049  RH  038%=      5-min Rain = 0
KWA1 052217Z 01023G28KT 20/05 A3011 RMK A01 T01960050  RH  038%=      5-min Rain = 0
KWA1 052218Z 00027KT 20/05 A3011 RMK A01 T01960049  RH  038%=      5-min Rain = 0
KWA1 052219Z 01023KT 20/05 A3011 RMK A01 T01950050  RH  038%=      5-min Rain = 0
KWA1 052220Z 01023KT 20/05 A3011 RMK A01 T01960050  RH  038%=      5-min Rain = 0
KWA1 052221Z 01019KT 20/05 A3011 RMK A01 T01960049  RH  038%=      5-min Rain = 0
KWA1 052222Z 00019KT 20/05 A3011 RMK A01 T01960048  RH  038%=      5-min Rain = 0
KWA1 052223Z 00019KT 20/05 A3011 RMK A01 T01960050  RH  038%=      5-min Rain = 0
KWA1 052224Z 01021KT 20/05 A3011 RMK A01 T01950047  RH  038%=      5-min Rain = 0
KWA1 052225Z 00022KT 19/05 A3011 RMK A01 T01920045  RH  038%=      5-min Rain = 0
KWA1 052226Z 01022KT 19/04 A3011 RMK A01 T01890044  RH  038%=      5-min Rain = 0
KWA1 052227Z 00020KT 19/05 A3011 RMK A01 T01880046  RH  039%=      5-min Rain = 0
KWA1 052228Z 01024KT 19/05 A3011 RMK A01 T01890048  RH  039%=      5-min Rain = 0
KWA1 052229Z 00026KT 19/05 A3012 RMK A01 T01890047  RH  039%=      5-min Rain = 0
KWA1 052230Z 00025KT 19/05 A3011 RMK A01 T01890047  RH  039%=      5-min Rain = 0
KWA1 052231Z 36024KT 19/05 A3011 RMK A01 T01880047  RH  039%=      5-min Rain = 0
KWA1 052232Z 00022KT 19/05 A3011 RMK A01 T01880047  RH  039%=      5-min Rain = 0
KWA1 052233Z 00020G27KT 19/05 A3011 RMK A01 T01890047  RH  039%=      5-min Rain = 0
KWA1 052234Z 01023G28KT 19/05 A3012 RMK A01 T01890047  RH  039%=      5-min Rain = 0
KWA1 052235Z 36021KT 19/05 A3012 RMK A01 T01890047  RH  039%=      5-min Rain = 0
KWA1 052236Z 00020KT 19/05 A3011 RMK A01 T01890051  RH  040%=      5-min Rain = 0
KWA1 052237Z 01023KT 19/05 A3012 RMK A01 T01900049  RH  039%=      5-min Rain = 0
KWA1 052238Z 01022KT 19/05 A3012 RMK A01 T01920048  RH  039%=      5-min Rain = 0
KWA1 052239Z 01023KT 19/05 A3012 RMK A01 T01920047  RH  039%=      5-min Rain = 0
KWA1 052240Z 01022KT 19/05 A3012 RMK A01 T01900047  RH  039%=      5-min Rain = 0
KWA1 052241Z 01021G27KT 19/05 A3012 RMK A01 T01900048  RH  039%=      5-min Rain = 0
KWA1 052242Z 00023KT 19/05 A3012 RMK A01 T01900046  RH  039%=      5-min Rain = 0
KWA1 052243Z 00026KT 19/05 A3012 RMK A01 T01880048  RH  040%=      5-min Rain = 0
KWA1 052244Z 01026KT 18/05 A3012 RMK A01 T01840050  RH  041%=      5-min Rain = 0
KWA1 052245Z 01025KT 18/05 A3012 RMK A01 T01830051  RH  042%=      5-min Rain = 0
KWA1 052246Z 01026KT 18/05 A3013 RMK A01 T01810051  RH  042%=      5-min Rain = 0
KWA1 052247Z 01026G31KT 18/05 A3012 RMK A01 T01800053  RH  043%=      5-min Rain = 0
KWA1 052248Z 00028KT 18/05 A3013 RMK A01 T01790052  RH  043%=      5-min Rain = 0
KWA1 052249Z 00026KT 18/05 A3012 RMK A01 T01770054  RH  044%=      5-min Rain = 0
KWA1 052250Z 01025KT 18/05 A3013 RMK A01 T01750053  RH  045%=      5-min Rain = 0
KWA1 052251Z 01024KT 18/05 A3013 RMK A01 T01750052  RH  044%=      5-min Rain = 0
KWA1 052252Z 01024KT 18/05 A3013 RMK A01 T01760053  RH  044%=      5-min Rain = 0
KWA1 052253Z 01027KT 18/05 A3013 RMK A01 T01770053  RH  044%=      5-min Rain = 0
KWA1 052254Z 01022KT 18/05 A3013 RMK A01 T01770052  RH  044%=      5-min Rain = 0
KWA1 052255Z 02025KT 18/05 A3013 RMK A01 T01760051  RH  044%=      5-min Rain = 0
KWA1 052256Z 01024G29KT 18/05 A3013 RMK A01 T01750052  RH  044%=      5-min Rain = 0
KWA1 052257Z 00023KT 18/05 A3013 RMK A01 T01760054  RH  045%=      5-min Rain = 0
KWA1 052258Z 01024KT 18/05 A3013 RMK A01 T01770054  RH  044%=      5-min Rain = 0
KWA1 052259Z 00022KT 18/05 A3013 RMK A01 T01770053  RH  044%=      5-min Rain = 0
KWA1 052300Z 35022G27KT 18/05 A3013 RMK A01 T01780054  RH  044%=      5-min Rain = 0
KWA1 052301Z 35022KT 18/06 A3013 RMK A01 T01780055  RH  044%=      5-min Rain = 0
KWA1 052302Z 35024KT 18/06 A3013 RMK A01 T01760055  RH  045%=      5-min Rain = 0
KWA1 052303Z 00023KT 18/05 A3013 RMK A01 T01750054  RH  045%=      5-min Rain = 0
KWA1 052304Z 36022G27KT 18/05 A3013 RMK A01 T01750054  RH  045%=      5-min Rain = 0
KWA1 052305Z 01024KT 18/05 A3013 RMK A01 T01760052  RH  044%=      5-min Rain = 0
KWA1 052306Z 36018KT 18/05 A3013 RMK A01 T01770053  RH  044%=      5-min Rain = 0
KWA1 052307Z 00020KT 18/05 A3013 RMK A01 T01780054  RH  044%=      5-min Rain = 0
KWA1 052308Z 00019KT 18/05 A3013 RMK A01 T01790053  RH  044%=      5-min Rain = 0
KWA1 052309Z 35019G24KT 18/06 A3013 RMK A01 T01780055  RH  044%=      5-min Rain = 0
KWA1 052310Z 35024KT 18/05 A3013 RMK A01 T01790054  RH  044%=      5-min Rain = 0
KWA1 052311Z 35022KT 18/05 A3013 RMK A01 T01760053  RH  044%=      5-min Rain = 0
KWA1 052312Z 35026KT 18/05 A3013 RMK A01 T01750053  RH  045%=      5-min Rain = 0
KWA1 052313Z 35025KT 17/05 A3013 RMK A01 T01740052  RH  044%=      5-min Rain = 0
KWA1 052314Z 35022KT 17/05 A3013 RMK A01 T01730053  RH  045%=      5-min Rain = 0
KWA1 052315Z 35025KT 17/05 A3013 RMK A01 T01730053  RH  045%=      5-min Rain = 0
KWA1 052316Z 35025KT 17/05 A3014 RMK A01 T01730052  RH  045%=      5-min Rain = 0
KWA1 052317Z 35024KT 17/05 A3014 RMK A01 T01710050  RH  045%=      5-min Rain = 0
KWA1 052318Z 35023KT 17/05 A3014 RMK A01 T01720051  RH  045%=      5-min Rain = 0
KWA1 052319Z 35023KT 17/05 A3014 RMK A01 T01720048  RH  044%=      5-min Rain = 0
KWA1 052320Z 35022G27KT 17/05 A3014 RMK A01 T01700047  RH  044%=      5-min Rain = 0
KWA1 052321Z 35020KT 17/05 A3014 RMK A01 T01690048  RH  045%=      5-min Rain = 0
KWA1 052322Z 34022KT 17/05 A3014 RMK A01 T01690049  RH  045%=      5-min Rain = 0
KWA1 052323Z 34023KT 17/05 A3014 RMK A01 T01690048  RH  045%=      5-min Rain = 0
KWA1 052324Z 35022KT 17/05 A3014 RMK A01 T01690047  RH  044%=      5-min Rain = 0
KWA1 052325Z 34023KT 17/05 A3014 RMK A01 T01690048  RH  044%=      5-min Rain = 0
KWA1 052326Z 34020KT 17/05 A3014 RMK A01 T01700050  RH  045%=      5-min Rain = 0
KWA1 052327Z 35023KT 17/05 A3014 RMK A01 T01700050  RH  045%=      5-min Rain = 0
KWA1 052328Z 35020KT 17/05 A3014 RMK A01 T01690051  RH  046%=      5-min Rain = 0
KWA1 052329Z 00023KT 17/05 A3015 RMK A01 T01690052  RH  046%=      5-min Rain = 0
KWA1 052330Z 00023KT 17/05 A3015 RMK A01 T01690053  RH  046%=      5-min Rain = 0
KWA1 052331Z 35024KT 17/05 A3015 RMK A01 T01680054  RH  047%=      5-min Rain = 0
KWA1 052332Z 36023KT 17/05 A3015 RMK A01 T01680053  RH  047%=      5-min Rain = 0
KWA1 052333Z 00024KT 17/05 A3015 RMK A01 T01670053  RH  047%=      5-min Rain = 0
KWA1 052334Z 00022KT 17/05 A3015 RMK A01 T01660051  RH  046%=      5-min Rain = 0
KWA1 052335Z 36021KT 17/05 A3015 RMK A01 T01670051  RH  046%=      5-min Rain = 0
KWA1 052336Z 36021KT 17/05 A3015 RMK A01 T01670052  RH  047%=      5-min Rain = 0
KWA1 052337Z 35024KT 17/05 A3015 RMK A01 T01660052  RH  047%=      5-min Rain = 0
KWA1 052338Z 35026KT 16/05 A3015 RMK A01 T01630052  RH  048%=      5-min Rain = 0
KWA1 052339Z 36024KT 16/05 A3015 RMK A01 T01610052  RH  048%=      5-min Rain = 0
KWA1 052340Z 36020KT 16/05 A3016 RMK A01 T01600052  RH  049%=      5-min Rain = 0
KWA1 052341Z 36021G28KT 16/05 A3016 RMK A01 T01600052  RH  049%=      5-min Rain = 0
KWA1 052342Z 35026KT 16/05 A3016 RMK A01 T01590052  RH  049%=      5-min Rain = 0
KWA1 052343Z 36026KT 16/05 A3016 RMK A01 T01570051  RH  049%=      5-min Rain = 0
KWA1 052344Z 36027KT 16/05 A3016 RMK A01 T01560050  RH  049%=      5-min Rain = 0
KWA1 052345Z 36026KT 16/05 A3016 RMK A01 T01550048  RH  049%=      5-min Rain = 0
KWA1 052346Z 36025KT 15/05 A3016 RMK A01 T01540047  RH  049%=      5-min Rain = 0
KWA1 052347Z 36024KT 15/05 A3016 RMK A01 T01540047  RH  049%=      5-min Rain = 0
KWA1 052348Z 00024KT 15/05 A3016 RMK A01 T01530046  RH  049%=      5-min Rain = 0
KWA1 052349Z 00025KT 15/05 A3016 RMK A01 T01530045  RH  048%=      5-min Rain = 0
KWA1 052350Z 36023KT 15/04 A3016 RMK A01 T01520044  RH  048%=      5-min Rain = 0
KWA1 052351Z 36020G25KT 15/05 A3016 RMK A01 T01530045  RH  049%=      5-min Rain = 0
KWA1 052352Z 35022KT 15/05 A3016 RMK A01 T01520045  RH  049%=      5-min Rain = 0
KWA1 052353Z 35022KT 15/04 A3016 RMK A01 T01530044  RH  048%=      5-min Rain = 0
KWA1 052354Z 35024KT 15/04 A3016 RMK A01 T01520043  RH  048%=      5-min Rain = 0
KWA1 052355Z 35023KT 15/04 A3017 RMK A01 T01520043  RH  048%=      5-min Rain = 0
KWA1 052356Z 35021KT 15/04 A3017 RMK A01 T01520044  RH  048%=      5-min Rain = 0
KWA1 052357Z 35022KT 15/04 A3017 RMK A01 T01520044  RH  048%=      5-min Rain = 0
KWA1 052358Z 35020KT 15/04 A3017 RMK A01 T01520044  RH  049%=      5-min Rain = 0
KWA1 052359Z 35022KT 15/04 A3017 RMK A01 T01520044  RH  049%=      5-min Rain = 0
KWA1 060000Z 36021KT 15/04 A3017 RMK A01 T01520044  RH  049%=      5-min Rain = 0
KWA1 060001Z 36022G27KT 15/04 A3017 RMK A01 T01510044  RH  049%=      5-min Rain = 0
KWA1 060002Z 36023KT 15/04 A3017 RMK A01 T01510042  RH  048%=      5-min Rain = 0
KWA1 060003Z 00021KT 15/04 A3017 RMK A01 T01500041  RH  048%=      5-min Rain = 0
KWA1 060004Z 00019KT 15/04 A3017 RMK A01 T01500041  RH  048%=      5-min Rain = 0
KWA1 060005Z 00022KT 15/04 A3018 RMK A01 T01500041  RH  048%=      5-min Rain = 0
KWA1 060006Z 00024KT 15/04 A3018 RMK A01 T01500040  RH  048%=      5-min Rain = 0
KWA1 060007Z 36021KT 15/04 A3018 RMK A01 T01490039  RH  048%=      5-min Rain = 0
KWA1 060008Z 00022G28KT 15/04 A3018 RMK A01 T01490040  RH  048%=      5-min Rain = 0
KWA1 060009Z 00024KT 15/04 A3018 RMK A01 T01490039  RH  048%=      5-min Rain = 0
KWA1 060010Z 00023KT 15/04 A3018 RMK A01 T01490040  RH  048%=      5-min Rain = 0
KWA1 060011Z 00022KT 15/04 A3018 RMK A01 T01480041  RH  048%=      5-min Rain = 0
KWA1 060012Z 01024KT 15/04 A3018 RMK A01 T01470039  RH  048%=      5-min Rain = 0
KWA1 060013Z 00023KT 15/04 A3018 RMK A01 T01470039  RH  048%=      5-min Rain = 0
KWA1 060014Z 00019KT 15/04 A3018 RMK A01 T01470038  RH  048%=      5-min Rain = 0
KWA1 060015Z 00022KT 15/04 A3018 RMK A01 T01480038  RH  048%=      5-min Rain = 0
KWA1 060016Z 00020KT 15/04 A3018 RMK A01 T01470038  RH  048%=      5-min Rain = 0
KWA1 060017Z 00023KT 15/04 A3018 RMK A01 T01470038  RH  048%=      5-min Rain = 0
KWA1 060018Z 00020KT 15/04 A3018 RMK A01 T01470038  RH  048%=      5-min Rain = 0
KWA1 060019Z 36018KT 15/04 A3018 RMK A01 T01460039  RH  049%=      5-min Rain = 0
KWA1 060020Z 36020KT 15/04 A3018 RMK A01 T01460040  RH  049%=      5-min Rain = 0
KWA1 060021Z 36019KT 15/04 A3019 RMK A01 T01460040  RH  049%=      5-min Rain = 0
KWA1 060022Z 36019KT 15/04 A3019 RMK A01 T01460041  RH  049%=      5-min Rain = 0
KWA1 060023Z 35021KT 15/04 A3019 RMK A01 T01450041  RH  050%=      5-min Rain = 0
KWA1 060024Z 00021KT 15/04 A3019 RMK A01 T01450041  RH  050%=      5-min Rain = 0
KWA1 060025Z 36019KT 15/04 A3019 RMK A01 T01450041  RH  050%=      5-min Rain = 0
KWA1 060026Z 00018KT 15/04 A3019 RMK A01 T01450042  RH  050%=      5-min Rain = 0
KWA1 060027Z 00017KT 15/04 A3019 RMK A01 T01450042  RH  050%=      5-min Rain = 0
KWA1 060028Z 00017KT 15/04 A3019 RMK A01 T01450041  RH  050%=      5-min Rain = 0
KWA1 060029Z 00018KT 15/04 A3019 RMK A01 T01450041  RH  050%=      5-min Rain = 0
KWA1 060030Z 36016KT 15/04 A3019 RMK A01 T01450042  RH  050%=      5-min Rain = 0
KWA1 060031Z 36018G23KT 15/04 A3019 RMK A01 T01450042  RH  050%=      5-min Rain = 0
KWA1 060032Z 35017KT 14/04 A3019 RMK A01 T01440042  RH  050%=      5-min Rain = 0
KWA1 060033Z 36016KT 14/04 A3019 RMK A01 T01440041  RH  050%=      5-min Rain = 0
KWA1 060034Z 35021KT 14/04 A3019 RMK A01 T01440041  RH  050%=      5-min Rain = 0
KWA1 060035Z 35021KT 14/04 A302 RMK A01 T01430039  RH  050%=      5-min Rain = 0
KWA1 060036Z 35020KT 14/04 A302 RMK A01 T01430039  RH  050%=      5-min Rain = 0
KWA1 060037Z 36022KT 14/04 A302 RMK A01 T01430039  RH  050%=      5-min Rain = 0
KWA1 060038Z 36022KT 14/04 A302 RMK A01 T01420039  RH  050%=      5-min Rain = 0
KWA1 060039Z 36021KT 14/04 A302 RMK A01 T01420039  RH  050%=      5-min Rain = 0
KWA1 060040Z 36018KT 14/04 A302 RMK A01 T01420039  RH  050%=      5-min Rain = 0
KWA1 060041Z 35021KT 14/04 A302 RMK A01 T01420040  RH  050%=      5-min Rain = 0
KWA1 060042Z 35020KT 14/04 A302 RMK A01 T01420039  RH  050%=      5-min Rain = 0
KWA1 060043Z 36020KT 14/04 A302 RMK A01 T01420039  RH  050%=      5-min Rain = 0
KWA1 060044Z 35018KT 14/04 A302 RMK A01 T01420040  RH  050%=      5-min Rain = 0
KWA1 060045Z 36016KT 14/04 A302 RMK A01 T01410040  RH  050%=      5-min Rain = 0
KWA1 060046Z 35017KT 14/04 A302 RMK A01 T01410040  RH  050%=      5-min Rain = 0
KWA1 060047Z 36016KT 14/04 A302 RMK A01 T01410040  RH  050%=      5-min Rain = 0
KWA1 060048Z 35016KT 14/04 A302 RMK A01 T01410040  RH  050%=      5-min Rain = 0
KWA1 060049Z 36018KT 14/04 A302 RMK A01 T01410040  RH  051%=      5-min Rain = 0
KWA1 060050Z 35017KT 14/04 A302 RMK A01 T01400039  RH  050%=      5-min Rain = 0
KWA1 060051Z 35018KT 14/04 A302 RMK A01 T01410039  RH  050%=      5-min Rain = 0
KWA1 060052Z 35020KT 14/04 A302 RMK A01 T01410039  RH  050%=      5-min Rain = 0
KWA1 060053Z 35021KT 14/04 A302 RMK A01 T01410039  RH  050%=      5-min Rain = 0
KWA1 060054Z 36020KT 14/04 A302 RMK A01 T01410040  RH  051%=      5-min Rain = 0
KWA1 060055Z 35020KT 14/04 A302 RMK A01 T01400039  RH  051%=      5-min Rain = 0
KWA1 060056Z 36021KT 14/04 A3021 RMK A01 T01400040  RH  051%=      5-min Rain = 0
KWA1 060057Z 36018KT 14/04 A3021 RMK A01 T01400040  RH  051%=      5-min Rain = 0
KWA1 060058Z 36021KT 14/04 A3021 RMK A01 T01400041  RH  051%=      5-min Rain = 0
KWA1 060059Z 00024KT 14/04 A3021 RMK A01 T01390041  RH  051%=      5-min Rain = 0
KWA1 060100Z 00022KT 14/04 A3021 RMK A01 T01390040  RH  051%=      5-min Rain = 0
KWA1 060101Z 00021KT 14/04 A3021 RMK A01 T01390040  RH  051%=      5-min Rain = 0
KWA1 060102Z 00021KT 14/04 A3021 RMK A01 T01390039  RH  051%=      5-min Rain = 0
KWA1 060103Z 01020KT 14/04 A3021 RMK A01 T01390040  RH  051%=      5-min Rain = 0
KWA1 060104Z 00020KT 14/04 A3021 RMK A01 T01390040  RH  051%=      5-min Rain = 0
KWA1 060105Z 00019KT 14/04 A3021 RMK A01 T01380039  RH  051%=      5-min Rain = 0
KWA1 060106Z 01021KT 14/04 A3021 RMK A01 T01380039  RH  051%=      5-min Rain = 0
KWA1 060107Z 01019G24KT 14/04 A3021 RMK A01 T01380039  RH  051%=      5-min Rain = 0
KWA1 060108Z 01019KT 14/04 A3021 RMK A01 T01380039  RH  051%=      5-min Rain = 0
KWA1 060109Z 01021KT 14/04 A3021 RMK A01 T01380039  RH  051%=      5-min Rain = 0
KWA1 060110Z 00020KT 14/04 A3021 RMK A01 T01380039  RH  051%=      5-min Rain = 0
KWA1 060111Z 00019KT 14/04 A3021 RMK A01 T01380038  RH  051%=      5-min Rain = 0
KWA1 060112Z 00018KT 14/04 A3021 RMK A01 T01370037  RH  051%=      5-min Rain = 0
KWA1 060113Z 00018KT 14/04 A3021 RMK A01 T01370038  RH  051%=      5-min Rain = 0
KWA1 060114Z 36016KT 14/04 A3021 RMK A01 T01360039  RH  052%=      5-min Rain = 0
KWA1 060115Z 00017KT 14/04 A3022 RMK A01 T01360039  RH  052%=      5-min Rain = 0
KWA1 060116Z 00017KT 14/04 A3022 RMK A01 T01360039  RH  052%=      5-min Rain = 0
KWA1 060117Z 00018KT 14/04 A3021 RMK A01 T01360040  RH  052%=      5-min Rain = 0
KWA1 060118Z 00019KT 14/04 A3022 RMK A01 T01360040  RH  052%=      5-min Rain = 0
KWA1 060119Z 01020KT 14/04 A3022 RMK A01 T01360040  RH  052%=      5-min Rain = 0
KWA1 060120Z 01019KT 14/04 A3022 RMK A01 T01360040  RH  052%=      5-min Rain = 0
KWA1 060121Z 00021KT 14/04 A3022 RMK A01 T01360039  RH  052%=      5-min Rain = 0
KWA1 060122Z 36019KT 14/04 A3021 RMK A01 T01360040  RH  052%=      5-min Rain = 0
KWA1 060123Z 00020KT 14/04 A3022 RMK A01 T01350040  RH  053%=      5-min Rain = 0
KWA1 060124Z 36020KT 14/04 A3021 RMK A01 T01350040  RH  053%=      5-min Rain = 0
KWA1 060125Z 00019KT 14/04 A3022 RMK A01 T01350040  RH  053%=      5-min Rain = 0
KWA1 060126Z 00018KT 14/04 A3022 RMK A01 T01350041  RH  053%=      5-min Rain = 0
KWA1 060127Z 36022KT 13/04 A3022 RMK A01 T01340040  RH  053%=      5-min Rain = 0
KWA1 060128Z 00019KT 13/04 A3022 RMK A01 T01340039  RH  053%=      5-min Rain = 0
KWA1 060129Z 00020KT 13/04 A3022 RMK A01 T01340039  RH  052%=      5-min Rain = 0
KWA1 060130Z 00021KT 13/04 A3022 RMK A01 T01340039  RH  052%=      5-min Rain = 0
KWA1 060131Z 00019G25KT 14/04 A3022 RMK A01 T01350039  RH  053%=      5-min Rain = 0
KWA1 060132Z 00022KT 13/04 A3022 RMK A01 T01340039  RH  053%=      5-min Rain = 0
KWA1 060133Z 00019G24KT 13/04 A3022 RMK A01 T01340040  RH  053%=      5-min Rain = 0
KWA1 060134Z 36019KT 13/04 A3022 RMK A01 T01330040  RH  053%=      5-min Rain = 0
KWA1 060135Z 00018KT 13/04 A3023 RMK A01 T01330040  RH  053%=      5-min Rain = 0
KWA1 060136Z 01018KT 13/04 A3023 RMK A01 T01330039  RH  053%=      5-min Rain = 0
KWA1 060137Z 00018KT 13/04 A3023 RMK A01 T01330040  RH  053%=      5-min Rain = 0
KWA1 060138Z 01019KT 13/04 A3023 RMK A01 T01330040  RH  053%=      5-min Rain = 0
KWA1 060139Z 01018KT 13/04 A3023 RMK A01 T01330040  RH  053%=      5-min Rain = 0
KWA1 060140Z 01015KT 13/04 A3023 RMK A01 T01330040  RH  053%=      5-min Rain = 0
KWA1 060141Z 01019KT 13/04 A3023 RMK A01 T01330040  RH  053%=      5-min Rain = 0
KWA1 060142Z 00017KT 13/04 A3023 RMK A01 T01330040  RH  053%=      5-min Rain = 0
KWA1 060143Z 00017KT 13/04 A3023 RMK A01 T01330041  RH  054%=      5-min Rain = 0
KWA1 060144Z 01016KT 13/04 A3023 RMK A01 T01330041  RH  054%=      5-min Rain = 0
KWA1 060145Z 01017KT 13/04 A3023 RMK A01 T01320040  RH  054%=      5-min Rain = 0
KWA1 060146Z 01019KT 13/04 A3023 RMK A01 T01330040  RH  054%=      5-min Rain = 0
KWA1 060147Z 01019KT 13/04 A3023 RMK A01 T01320040  RH  053%=      5-min Rain = 0
KWA1 060148Z 01019KT 13/04 A3023 RMK A01 T01320040  RH  053%=      5-min Rain = 0
KWA1 060149Z 00019KT 13/04 A3023 RMK A01 T01320040  RH  053%=      5-min Rain = 0
KWA1 060150Z 01019KT 13/04 A3023 RMK A01 T01320040  RH  054%=      5-min Rain = 0
KWA1 060151Z 01016KT 13/04 A3023 RMK A01 T01320041  RH  054%=      5-min Rain = 0
KWA1 060152Z 01020KT 13/04 A3023 RMK A01 T01320041  RH  054%=      5-min Rain = 0
KWA1 060153Z 00020KT 13/04 A3023 RMK A01 T01320041  RH  054%=      5-min Rain = 0
KWA1 060154Z 00018KT 13/04 A3023 RMK A01 T01320041  RH  054%=      5-min Rain = 0
KWA1 060155Z 00019KT 13/04 A3023 RMK A01 T01320041  RH  054%=      5-min Rain = 0
KWA1 060156Z 00017KT 13/04 A3023 RMK A01 T01320041  RH  054%=      5-min Rain = 0
KWA1 060157Z 01016KT 13/04 A3023 RMK A01 T01310041  RH  054%=      5-min Rain = 0
KWA1 060158Z 01015KT 13/04 A3023 RMK A01 T01320042  RH  055%=      5-min Rain = 0
KWA1 060159Z 00015KT 13/04 A3023 RMK A01 T01310042  RH  055%=      5-min Rain = 0
KWA1 060200Z 00015KT 13/04 A3023 RMK A01 T01310042  RH  055%=      5-min Rain = 0
KWA1 060201Z 01015KT 13/04 A3024 RMK A01 T01310042  RH  055%=      5-min Rain = 0
KWA1 060202Z 01017KT 13/04 A3024 RMK A01 T01320042  RH  055%=      5-min Rain = 0
KWA1 060203Z 36017KT 13/04 A3024 RMK A01 T01310042  RH  055%=      5-min Rain = 0
KWA1 060204Z 00017KT 13/04 A3024 RMK A01 T01310042  RH  055%=      5-min Rain = 0
KWA1 060205Z 00017KT 13/04 A3024 RMK A01 T01300042  RH  055%=      5-min Rain = 0
KWA1 060206Z 00015KT 13/04 A3024 RMK A01 T01300042  RH  055%=      5-min Rain = 0
KWA1 060207Z 36017KT 13/04 A3024 RMK A01 T01300043  RH  055%=      5-min Rain = 0
KWA1 060208Z 00018KT 13/04 A3024 RMK A01 T01300042  RH  055%=      5-min Rain = 0
KWA1 060209Z 00016KT 13/04 A3024 RMK A01 T01300041  RH  055%=      5-min Rain = 0
KWA1 060210Z 36017KT 13/04 A3024 RMK A01 T01300041  RH  055%=      5-min Rain = 0
KWA1 060211Z 36017KT 13/04 A3024 RMK A01 T01300042  RH  055%=      5-min Rain = 0
KWA1 060212Z 00016KT 13/04 A3024 RMK A01 T01300042  RH  055%=      5-min Rain = 0
KWA1 060213Z 01020KT 13/04 A3024 RMK A01 T01300041  RH  055%=      5-min Rain = 0
KWA1 060214Z 01018KT 13/04 A3024 RMK A01 T01300041  RH  055%=      5-min Rain = 0
KWA1 060215Z 01016KT 13/04 A3024 RMK A01 T01300041  RH  055%=      5-min Rain = 0
KWA1 060216Z 00014KT 13/04 A3024 RMK A01 T01300041  RH  055%=      5-min Rain = 0
KWA1 060217Z 00013KT 13/04 A3024 RMK A01 T01300042  RH  055%=      5-min Rain = 0
KWA1 060218Z 00014KT 13/04 A3024 RMK A01 T01290042  RH  055%=      5-min Rain = 0
KWA1 060219Z 36016KT 13/04 A3024 RMK A01 T01290042  RH  055%=      5-min Rain = 0
KWA1 060220Z 00016KT 13/04 A3024 RMK A01 T01290043  RH  056%=      5-min Rain = 0
KWA1 060221Z 00017KT 13/04 A3025 RMK A01 T01290042  RH  056%=      5-min Rain = 0
KWA1 060222Z 00017KT 13/04 A3025 RMK A01 T01290043  RH  056%=      5-min Rain = 0
KWA1 060223Z 01016KT 13/04 A3025 RMK A01 T01290043  RH  056%=      5-min Rain = 0
KWA1 060224Z 00015KT 13/04 A3025 RMK A01 T01290042  RH  056%=      5-min Rain = 0
KWA1 060225Z 00015KT 13/04 A3025 RMK A01 T01290042  RH  055%=      5-min Rain = 0
KWA1 060226Z 01016KT 13/04 A3025 RMK A01 T01290042  RH  056%=      5-min Rain = 0
KWA1 060227Z 00015KT 13/04 A3025 RMK A01 T01290042  RH  056%=      5-min Rain = 0
KWA1 060228Z 00015KT 13/04 A3025 RMK A01 T01290042  RH  055%=      5-min Rain = 0
KWA1 060229Z 00015KT 13/04 A3025 RMK A01 T01290042  RH  056%=      5-min Rain = 0
KWA1 060230Z 00013KT 13/04 A3025 RMK A01 T01280042  RH  056%=      5-min Rain = 0
KWA1 060231Z 00015KT 13/04 A3025 RMK A01 T01280042  RH  056%=      5-min Rain = 0
KWA1 060232Z 36016KT 13/04 A3025 RMK A01 T01280042  RH  056%=      5-min Rain = 0
KWA1 060233Z 36014KT 13/04 A3025 RMK A01 T01280043  RH  056%=      5-min Rain = 0
KWA1 060234Z 36012KT 13/04 A3025 RMK A01 T01280043  RH  056%=      5-min Rain = 0
KWA1 060235Z 36012KT 13/04 A3025 RMK A01 T01270043  RH  057%=      5-min Rain = 0
KWA1 060236Z 36014KT 13/04 A3025 RMK A01 T01270043  RH  057%=      5-min Rain = 0
KWA1 060237Z 35013KT 13/04 A3025 RMK A01 T01270043  RH  057%=      5-min Rain = 0
KWA1 060238Z 36013KT 13/04 A3025 RMK A01 T01270043  RH  057%=      5-min Rain = 0
KWA1 060239Z 35015KT 13/04 A3025 RMK A01 T01270043  RH  056%=      5-min Rain = 0
KWA1 060240Z 36014KT 13/04 A3025 RMK A01 T01270043  RH  057%=      5-min Rain = 0
KWA1 060241Z 36014KT 13/04 A3025 RMK A01 T01270043  RH  057%=      5-min Rain = 0
KWA1 060242Z 35016KT 13/04 A3025 RMK A01 T01270043  RH  057%=      5-min Rain = 0
KWA1 060243Z 36018KT 13/04 A3025 RMK A01 T01280043  RH  056%=      5-min Rain = 0
KWA1 060244Z 00015KT 13/04 A3026 RMK A01 T01270043  RH  056%=      5-min Rain = 0
KWA1 060245Z 00014KT 13/04 A3026 RMK A01 T01270043  RH  056%=      5-min Rain = 0
KWA1 060246Z 00015KT 13/04 A3026 RMK A01 T01270042  RH  056%=      5-min Rain = 0
KWA1 060247Z 00016KT 13/04 A3026 RMK A01 T01270042  RH  056%=      5-min Rain = 0
KWA1 060248Z 00016KT 13/04 A3026 RMK A01 T01270042  RH  056%=      5-min Rain = 0
KWA1 060249Z 01016KT 13/04 A3026 RMK A01 T01270042  RH  056%=      5-min Rain = 0
KWA1 060250Z 01014KT 13/04 A3026 RMK A01 T01270042  RH  056%=      5-min Rain = 0
KWA1 060251Z 01014KT 13/04 A3026 RMK A01 T01270041  RH  056%=      5-min Rain = 0
KWA1 060252Z 01014KT 13/04 A3026 RMK A01 T01280042  RH  056%=      5-min Rain = 0
KWA1 060253Z 00015KT 13/04 A3026 RMK A01 T01280042  RH  056%=      5-min Rain = 0
KWA1 060254Z 00017KT 13/04 A3026 RMK A01 T01270042  RH  056%=      5-min Rain = 0
KWA1 060255Z 01016KT 13/04 A3026 RMK A01 T01270043  RH  056%=      5-min Rain = 0
KWA1 060256Z 01014KT 13/04 A3026 RMK A01 T01270042  RH  056%=      5-min Rain = 0
KWA1 060257Z 01014KT 13/04 A3026 RMK A01 T01270042  RH  056%=      5-min Rain = 0
KWA1 060258Z 01014KT 13/04 A3026 RMK A01 T01270042  RH  056%=      5-min Rain = 0
KWA1 060259Z 01014KT 13/04 A3026 RMK A01 T01270043  RH  056%=      5-min Rain = 0
KWA1 060300Z 01014KT 13/04 A3026 RMK A01 T01270043  RH  056%=      5-min Rain = 0
KWA1 060301Z 01017KT 13/04 A3026 RMK A01 T01270043  RH  056%=      5-min Rain = 0
KWA1 060302Z 01017KT 13/04 A3026 RMK A01 T01270043  RH  056%=      5-min Rain = 0
KWA1 060303Z 01017KT 13/04 A3026 RMK A01 T01270043  RH  056%=      5-min Rain = 0
KWA1 060304Z 01015KT 13/04 A3026 RMK A01 T01270043  RH  056%=      5-min Rain = 0
KWA1 060305Z 02016KT 13/04 A3026 RMK A01 T01270043  RH  056%=      5-min Rain = 0
KWA1 060306Z 01014KT 13/04 A3026 RMK A01 T01280043  RH  056%=      5-min Rain = 0
KWA1 060307Z 01014KT 13/04 A3026 RMK A01 T01270043  RH  057%=      5-min Rain = 0
KWA1 060308Z 01014KT 13/04 A3026 RMK A01 T01270043  RH  057%=      5-min Rain = 0
KWA1 060309Z 01015KT 13/04 A3026 RMK A01 T01270043  RH  057%=      5-min Rain = 0
KWA1 060310Z 01014KT 13/04 A3026 RMK A01 T01270044  RH  057%=      5-min Rain = 0
KWA1 060311Z 01015KT 13/04 A3026 RMK A01 T01270043  RH  057%=      5-min Rain = 0
KWA1 060312Z 00016KT 13/04 A3026 RMK A01 T01270043  RH  057%=      5-min Rain = 0
KWA1 060313Z 01016KT 13/04 A3026 RMK A01 T01260043  RH  057%=      5-min Rain = 0
KWA1 060314Z 01016KT 13/04 A3026 RMK A01 T01260043  RH  057%=      5-min Rain = 0
KWA1 060315Z 01014KT 13/04 A3026 RMK A01 T01270044  RH  057%=      5-min Rain = 0
KWA1 060316Z 01014KT 13/04 A3026 RMK A01 T01260044  RH  057%=      5-min Rain = 0
KWA1 060317Z 00013KT 13/04 A3026 RMK A01 T01260044  RH  057%=      5-min Rain = 0
KWA1 060318Z 01015KT 13/04 A3027 RMK A01 T01260044  RH  057%=      5-min Rain = 0
KWA1 060319Z 01016KT 13/04 A3027 RMK A01 T01260044  RH  057%=      5-min Rain = 0
KWA1 060320Z 00018KT 13/04 A3027 RMK A01 T01260044  RH  057%=      5-min Rain = 0
KWA1 060321Z 00017KT 13/04 A3027 RMK A01 T01260044  RH  058%=      5-min Rain = 0
KWA1 060322Z 00016KT 13/05 A3027 RMK A01 T01260045  RH  058%=      5-min Rain = 0
KWA1 060323Z 01018KT 13/05 A3027 RMK A01 T01260045  RH  058%=      5-min Rain = 0
KWA1 060324Z 00016KT 13/05 A3027 RMK A01 T01260045  RH  058%=      5-min Rain = 0
KWA1 060325Z 00017KT 13/05 A3027 RMK A01 T01260046  RH  058%=      5-min Rain = 0
KWA1 060326Z 01018KT 13/05 A3027 RMK A01 T01250045  RH  058%=      5-min Rain = 0
KWA1 060327Z 01016KT 13/05 A3027 RMK A01 T01260045  RH  058%=      5-min Rain = 0
KWA1 060328Z 01015KT 13/05 A3027 RMK A01 T01260045  RH  058%=      5-min Rain = 0
KWA1 060329Z 01015KT 13/05 A3027 RMK A01 T01250045  RH  058%=      5-min Rain = 0
KWA1 060330Z 01016KT 13/05 A3027 RMK A01 T01250046  RH  058%=      5-min Rain = 0
KWA1 060331Z 00017KT 13/05 A3027 RMK A01 T01250046  RH  058%=      5-min Rain = 0
KWA1 060332Z 01017KT 13/05 A3027 RMK A01 T01260046  RH  058%=      5-min Rain = 0
KWA1 060333Z 01016KT 13/05 A3027 RMK A01 T01260046  RH  058%=      5-min Rain = 0
KWA1 060334Z 01013KT 13/05 A3027 RMK A01 T01250046  RH  059%=      5-min Rain = 0
KWA1 060335Z 01015KT 13/05 A3027 RMK A01 T01250046  RH  059%=      5-min Rain = 0
KWA1 060336Z 01015KT 13/05 A3027 RMK A01 T01250047  RH  059%=      5-min Rain = 0
KWA1 060337Z 02017KT 13/05 A3028 RMK A01 T01250047  RH  059%=      5-min Rain = 0
KWA1 060338Z 01015KT 13/05 A3027 RMK A01 T01250048  RH  059%=      5-min Rain = 0
KWA1 060339Z 02017G22KT 12/05 A3027 RMK A01 T01240048  RH  060%=      5-min Rain = 0
KWA1 060340Z 01017KT 12/05 A3027 RMK A01 T01240048  RH  060%=      5-min Rain = 0
KWA1 060341Z 01019KT 12/05 A3027 RMK A01 T01240048  RH  060%=      5-min Rain = 0
KWA1 060342Z 02017KT 12/05 A3027 RMK A01 T01240048  RH  060%=      5-min Rain = 0
KWA1 060343Z 01018KT 12/05 A3027 RMK A01 T01240049  RH  060%=      5-min Rain = 0
KWA1 060344Z 02018KT 12/05 A3027 RMK A01 T01240049  RH  060%=      5-min Rain = 0
KWA1 060345Z 02018KT 12/05 A3028 RMK A01 T01240049  RH  060%=      5-min Rain = 0
KWA1 060346Z 01015KT 12/05 A3027 RMK A01 T01240049  RH  060%=      5-min Rain = 0
KWA1 060347Z 01015KT 12/05 A3027 RMK A01 T01240048  RH  060%=      5-min Rain = 0
KWA1 060348Z 01016KT 12/05 A3028 RMK A01 T01240048  RH  060%=      5-min Rain = 0
KWA1 060349Z 01017KT 12/05 A3028 RMK A01 T01240049  RH  060%=      5-min Rain = 0
KWA1 060350Z 01017KT 12/05 A3028 RMK A01 T01240048  RH  060%=      5-min Rain = 0
KWA1 060351Z 02016KT 12/05 A3028 RMK A01 T01240049  RH  060%=      5-min Rain = 0
KWA1 060352Z 02013KT 12/05 A3028 RMK A01 T01230049  RH  060%=      5-min Rain = 0
KWA1 060353Z 02012KT 12/05 A3028 RMK A01 T01230049  RH  060%=      5-min Rain = 0
KWA1 060354Z 01012KT 12/05 A3028 RMK A01 T01230049  RH  060%=      5-min Rain = 0
KWA1 060355Z 01014KT 12/05 A3028 RMK A01 T01230049  RH  060%=      5-min Rain = 0
KWA1 060356Z 01012KT 12/05 A3028 RMK A01 T01230049  RH  060%=      5-min Rain = 0
KWA1 060357Z 01012KT 12/05 A3028 RMK A01 T01230049  RH  060%=      5-min Rain = 0
KWA1 060358Z 02012KT 12/05 A3028 RMK A01 T01230049  RH  060%=      5-min Rain = 0
KWA1 060359Z 01012KT 12/05 A3028 RMK A01 T01230049  RH  060%=      5-min Rain = 0
KWA1 060400Z 01013KT 12/05 A3028 RMK A01 T01230048  RH  060%=      5-min Rain = 0
KWA1 060401Z 01013KT 12/05 A3028 RMK A01 T01230049  RH  061%=      5-min Rain = 0
KWA1 060402Z 01012KT 12/05 A3028 RMK A01 T01230049  RH  061%=      5-min Rain = 0
KWA1 060403Z 01013KT 12/05 A3028 RMK A01 T01230049  RH  060%=      5-min Rain = 0
KWA1 060404Z 01011KT 12/05 A3028 RMK A01 T01230049  RH  061%=      5-min Rain = 0
KWA1 060405Z 02012KT 12/05 A3028 RMK A01 T01230049  RH  061%=      5-min Rain = 0
KWA1 060406Z 01011KT 12/05 A3028 RMK A01 T01220049  RH  061%=      5-min Rain = 0
KWA1 060407Z 01012KT 12/05 A3028 RMK A01 T01230049  RH  061%=      5-min Rain = 0
KWA1 060408Z 01011KT 12/05 A3028 RMK A01 T01220049  RH  061%=      5-min Rain = 0
KWA1 060409Z 01011KT 12/05 A3028 RMK A01 T01220049  RH  061%=      5-min Rain = 0
KWA1 060410Z 01011KT 12/05 A3028 RMK A01 T01220048  RH  061%=      5-min Rain = 0
KWA1 060411Z 01012KT 12/05 A3028 RMK A01 T01220048  RH  061%=      5-min Rain = 0
KWA1 060412Z 01011KT 12/05 A3028 RMK A01 T01210048  RH  061%=      5-min Rain = 0
KWA1 060413Z 01013KT 12/05 A3028 RMK A01 T01220049  RH  061%=      5-min Rain = 0
KWA1 060414Z 01012KT 12/05 A3028 RMK A01 T01210048  RH  061%=      5-min Rain = 0
KWA1 060415Z 01011KT 12/05 A3028 RMK A01 T01220048  RH  061%=      5-min Rain = 0
KWA1 060416Z 01011KT 12/05 A3028 RMK A01 T01210048  RH  061%=      5-min Rain = 0
KWA1 060417Z 01012KT 12/05 A3028 RMK A01 T01210048  RH  061%=      5-min Rain = 0
KWA1 060418Z 01011KT 12/05 A3028 RMK A01 T01210048  RH  061%=      5-min Rain = 0
KWA1 060419Z 01013KT 12/05 A3028 RMK A01 T01210048  RH  061%=      5-min Rain = 0
KWA1 060420Z 01011KT 12/05 A3028 RMK A01 T01210048  RH  061%=      5-min Rain = 0
KWA1 060421Z 01010KT 12/05 A3028 RMK A01 T01210048  RH  061%=      5-min Rain = 0
KWA1 060422Z 01010KT 12/05 A3028 RMK A01 T01210047  RH  061%=      5-min Rain = 0
KWA1 060423Z 01011KT 12/05 A3028 RMK A01 T01210048  RH  061%=      5-min Rain = 0
KWA1 060424Z 01011KT 12/05 A3028 RMK A01 T01210048  RH  061%=      5-min Rain = 0
KWA1 060425Z 01010KT 12/05 A3028 RMK A01 T01210048  RH  061%=      5-min Rain = 0
KWA1 060426Z 01011KT 12/05 A3028 RMK A01 T01200048  RH  061%=      5-min Rain = 0
KWA1 060427Z 01011KT 12/05 A3028 RMK A01 T01210048  RH  061%=      5-min Rain = 0
KWA1 060428Z 01011KT 12/05 A3028 RMK A01 T01200048  RH  061%=      5-min Rain = 0
KWA1 060429Z 01011KT 12/05 A3028 RMK A01 T01200048  RH  061%=      5-min Rain = 0
KWA1 060430Z 00010KT 12/05 A3028 RMK A01 T01200048  RH  061%=      5-min Rain = 0
KWA1 060431Z 36011KT 12/05 A3028 RMK A01 T01200048  RH  061%=      5-min Rain = 0
KWA1 060432Z 36010KT 12/05 A3028 RMK A01 T01200049  RH  062%=      5-min Rain = 0
KWA1 060433Z 36010KT 12/05 A3028 RMK A01 T01190048  RH  062%=      5-min Rain = 0
KWA1 060434Z 36010KT 12/05 A3028 RMK A01 T01180049  RH  062%=      5-min Rain = 0
KWA1 060435Z 00010KT 12/05 A3028 RMK A01 T01180049  RH  062%=      5-min Rain = 0
KWA1 060436Z 00009KT 12/05 A3028 RMK A01 T01180049  RH  062%=      5-min Rain = 0
KWA1 060437Z 36009KT 12/05 A3028 RMK A01 T01170048  RH  063%=      5-min Rain = 0
KWA1 060438Z 36008KT 12/05 A3028 RMK A01 T01170048  RH  063%=      5-min Rain = 0
KWA1 060439Z 35008KT 12/05 A3028 RMK A01 T01160048  RH  063%=      5-min Rain = 0
KWA1 060440Z 00009KT 12/05 A3028 RMK A01 T01150048  RH  063%=      5-min Rain = 0
KWA1 060441Z 36011KT 12/05 A3028 RMK A01 T01150048  RH  063%=      5-min Rain = 0
KWA1 060442Z 36011KT 12/05 A3028 RMK A01 T01160048  RH  063%=      5-min Rain = 0
KWA1 060443Z 36009KT 12/05 A3028 RMK A01 T01150048  RH  063%=      5-min Rain = 0
KWA1 060444Z 36009KT 12/05 A3028 RMK A01 T01150048  RH  063%=      5-min Rain = 0
KWA1 060445Z 36011KT 12/05 A3028 RMK A01 T01150048  RH  064%=      5-min Rain = 0
KWA1 060446Z 36010KT 12/05 A3028 RMK A01 T01150049  RH  064%=      5-min Rain = 0
KWA1 060447Z 36009KT 11/05 A3028 RMK A01 T01140049  RH  064%=      5-min Rain = 0
KWA1 060448Z 36010KT 11/05 A3028 RMK A01 T01140048  RH  064%=      5-min Rain = 0
KWA1 060449Z 35010KT 11/05 A3028 RMK A01 T01130048  RH  064%=      5-min Rain = 0
KWA1 060450Z 36009KT 11/05 A3028 RMK A01 T01140048  RH  064%=      5-min Rain = 0
KWA1 060451Z 35010KT 11/05 A3028 RMK A01 T01130048  RH  064%=      5-min Rain = 0
KWA1 060452Z 36010KT 11/05 A3028 RMK A01 T01130049  RH  065%=      5-min Rain = 0
KWA1 060453Z 36010KT 11/05 A3028 RMK A01 T01130049  RH  065%=      5-min Rain = 0
KWA1 060454Z 36010KT 11/05 A3029 RMK A01 T01120048  RH  065%=      5-min Rain = 0
KWA1 060455Z 36011KT 11/05 A3029 RMK A01 T01110048  RH  065%=      5-min Rain = 0
KWA1 060456Z 36011KT 11/05 A3029 RMK A01 T01110048  RH  065%=      5-min Rain = 0
KWA1 060457Z 36010KT 11/05 A3029 RMK A01 T01100048  RH  065%=      5-min Rain = 0
KWA1 060458Z 00009KT 11/05 A3029 RMK A01 T01090047  RH  065%=      5-min Rain = 0
KWA1 060459Z 36009KT 11/05 A3029 RMK A01 T01090047  RH  066%=      5-min Rain = 0
KWA1 060500Z 36009KT 11/05 A3029 RMK A01 T01080047  RH  066%=      5-min Rain = 0
KWA1 060501Z 36009KT 11/05 A3029 RMK A01 T01070046  RH  066%=      5-min Rain = 0
KWA1 060502Z 36009KT 11/05 A3029 RMK A01 T01070047  RH  066%=      5-min Rain = 0
KWA1 060503Z 00009KT 11/05 A3029 RMK A01 T01060046  RH  067%=      5-min Rain = 0
KWA1 060504Z 36009KT 11/05 A3029 RMK A01 T01050046  RH  067%=      5-min Rain = 0
KWA1 060505Z 00009KT 11/05 A3029 RMK A01 T01050046  RH  067%=      5-min Rain = 0
KWA1 060506Z 36008KT 10/05 A3029 RMK A01 T01040045  RH  067%=      5-min Rain = 0
KWA1 060507Z 00008KT 10/05 A3029 RMK A01 T01030045  RH  067%=      5-min Rain = 0
KWA1 060508Z 00008KT 10/05 A3028 RMK A01 T01030046  RH  068%=      5-min Rain = 0
KWA1 060509Z 36008KT 10/05 A3028 RMK A01 T01020045  RH  068%=      5-min Rain = 0
KWA1 060510Z 36008KT 10/05 A3028 RMK A01 T01020045  RH  068%=      5-min Rain = 0
KWA1 060511Z 00007KT 10/04 A3028 RMK A01 T01010044  RH  068%=      5-min Rain = 0
KWA1 060512Z 36007KT 10/04 A3028 RMK A01 T01000044  RH  068%=      5-min Rain = 0
KWA1 060513Z 36007KT 10/04 A3028 RMK A01 T01000043  RH  068%=      5-min Rain = 0
KWA1 060514Z 36007KT 10/04 A3028 RMK A01 T00990043  RH  068%=      5-min Rain = 0
KWA1 060515Z 36007KT 10/04 A3028 RMK A01 T00980043  RH  068%=      5-min Rain = 0
KWA1 060516Z 35007KT 10/04 A3028 RMK A01 T00970042  RH  068%=      5-min Rain = 0
KWA1 060517Z 35007KT 10/04 A3028 RMK A01 T00970042  RH  069%=      5-min Rain = 0
KWA1 060518Z 35007KT 10/04 A3028 RMK A01 T00960043  RH  069%=      5-min Rain = 0
KWA1 060519Z 35007KT 10/04 A3028 RMK A01 T00960042  RH  069%=      5-min Rain = 0
KWA1 060520Z 35008KT 10/04 A3028 RMK A01 T00950042  RH  069%=      5-min Rain = 0
KWA1 060521Z 35007KT 09/04 A3028 RMK A01 T00940042  RH  070%=      5-min Rain = 0
KWA1 060522Z 35007KT 09/04 A3028 RMK A01 T00940041  RH  070%=      5-min Rain = 0
KWA1 060523Z 35007KT 09/04 A3028 RMK A01 T00930041  RH  070%=      5-min Rain = 0
KWA1 060524Z 35007KT 09/04 A3028 RMK A01 T00920040  RH  070%=      5-min Rain = 0
KWA1 060525Z 35007KT 09/04 A3028 RMK A01 T00910040  RH  070%=      5-min Rain = 0
KWA1 060526Z 35007KT 09/04 A3028 RMK A01 T00910040  RH  071%=      5-min Rain = 0
KWA1 060527Z 35007KT 09/04 A3028 RMK A01 T00900040  RH  071%=      5-min Rain = 0
KWA1 060528Z 35007KT 09/04 A3028 RMK A01 T00890039  RH  071%=      5-min Rain = 0
KWA1 060529Z 35007KT 09/04 A3028 RMK A01 T00890040  RH  071%=      5-min Rain = 0
KWA1 060530Z 35007KT 09/04 A3028 RMK A01 T00880040  RH  072%=      5-min Rain = 0
KWA1 060531Z 35007KT 09/04 A3028 RMK A01 T00880040  RH  072%=      5-min Rain = 0
KWA1 060532Z 34006KT 09/04 A3028 RMK A01 T00880039  RH  072%=      5-min Rain = 0
KWA1 060533Z 34006KT 09/04 A3028 RMK A01 T00880040  RH  072%=      5-min Rain = 0
KWA1 060534Z 34006KT 09/04 A3028 RMK A01 T00870039  RH  072%=      5-min Rain = 0
KWA1 060535Z 34006KT 09/04 A3028 RMK A01 T00870039  RH  072%=      5-min Rain = 0
KWA1 060536Z 34006KT 09/04 A3028 RMK A01 T00870039  RH  072%=      5-min Rain = 0
KWA1 060537Z 34006KT 09/04 A3028 RMK A01 T00860039  RH  072%=      5-min Rain = 0
KWA1 060538Z 34007KT 09/04 A3028 RMK A01 T00860039  RH  072%=      5-min Rain = 0
KWA1 060539Z 34007KT 09/04 A3028 RMK A01 T00860039  RH  072%=      5-min Rain = 0
KWA1 060540Z 34007KT 09/04 A3028 RMK A01 T00860039  RH  073%=      5-min Rain = 0
KWA1 060541Z 34007KT 09/04 A3028 RMK A01 T00860039  RH  072%=      5-min Rain = 0
KWA1 060542Z 34007KT 09/04 A3028 RMK A01 T00860039  RH  073%=      5-min Rain = 0
KWA1 060543Z 34007KT 09/04 A3028 RMK A01 T00860039  RH  073%=      5-min Rain = 0
KWA1 060544Z 34007KT 09/04 A3028 RMK A01 T00860039  RH  073%=      5-min Rain = 0
KWA1 060545Z 34007KT 09/04 A3028 RMK A01 T00860040  RH  073%=      5-min Rain = 0
KWA1 060546Z 34007KT 09/04 A3028 RMK A01 T00860039  RH  073%=      5-min Rain = 0
KWA1 060547Z 34007KT 09/04 A3028 RMK A01 T00860039  RH  072%=      5-min Rain = 0
KWA1 060548Z 34007KT 09/04 A3028 RMK A01 T00860039  RH  072%=      5-min Rain = 0
KWA1 060549Z 34007KT 09/04 A3028 RMK A01 T00850039  RH  073%=      5-min Rain = 0
KWA1 060550Z 34007KT 09/04 A3028 RMK A01 T00850039  RH  073%=      5-min Rain = 0
KWA1 060551Z 34007KT 09/04 A3028 RMK A01 T00850039  RH  073%=      5-min Rain = 0
KWA1 060552Z 34007KT 08/04 A3028 RMK A01 T00840039  RH  073%=      5-min Rain = 0
KWA1 060553Z 34007KT 09/04 A3028 RMK A01 T00850039  RH  073%=      5-min Rain = 0
KWA1 060554Z 34008KT 08/04 A3028 RMK A01 T00840039  RH  073%=      5-min Rain = 0
KWA1 060555Z 34007KT 09/04 A3028 RMK A01 T00850040  RH  073%=      5-min Rain = 0
KWA1 060556Z 34007KT 09/04 A3028 RMK A01 T00850040  RH  074%=      5-min Rain = 0
KWA1 060557Z 34007KT 09/04 A3028 RMK A01 T00850040  RH  073%=      5-min Rain = 0
KWA1 060558Z 34007KT 08/04 A3028 RMK A01 T00840040  RH  073%=      5-min Rain = 0
KWA1 060559Z 34007KT 08/04 A3028 RMK A01 T00840039  RH  073%=      5-min Rain = 0

Page generated in 0.0647 seconds.